Flight Track Log - Related Links

Times and Time Zones

All times are in EDT time to prevent confusion due to time zone crossing. See the DAL268 flight status page for this flight to view local times or setup timezone preferences in your user account.

Time Position Orientation Groundspeed Altitude Reporting Facility
EDT Latitude Longitude Course Direction KTS MPH feet Rate Location/Type
Sat 11:50:21 PM 40.6480 -73.7810 North  Level FlightAware ADS-B
Sat 11:55:00 PM 40.8972 -73.5361 37° Northeast  Level FlightAware Approximate
Sat 11:56:00 PM 41.0087 -73.4340 30° Northeast  Level FlightAware Approximate
Sat 11:57:00 PM 41.1313 -73.3427 21° North  Level FlightAware Approximate
Sat 11:58:00 PM 41.2493 -73.2422 29° Northeast  Level FlightAware Approximate
Sun 12:10:54 AM 40.6370 -73.7800 298° West 90 104  Level FlightAware ADS-B
Sun 12:11:15 AM 40.6430 -73.7940 299° West 155 178 293 Level FlightAware ADS-B
Sun 12:11:35 AM 40.6510 -73.8130 299° West 177 204 200 1,000 Climbing FlightAware ADS-B
Sun 12:11:51 AM 40.6560 -73.8270 295° West 178 205 600 1,200 Climbing FlightAware ADS-B
Sun 12:11:55 AM 40.6570 -73.8320 285° West 183 211 600 1,071 Level FlightAware ADS-B
Sun 12:12:19 AM 40.6510 -73.8590 254° West 205 236 1,100 1,313 Climbing FlightAware ADS-B
Sun 12:12:27 AM 40.6460 -73.8670 231° Southwest 208 239 1,300 1,333 Climbing FlightAware ADS-B
Sun 12:12:37 AM 40.6380 -73.8750 217° Southwest 216 249 1,500 900 Climbing FlightAware ADS-B
Sun 12:12:47 AM 40.6290 -73.8810 207° Southwest 227 261 1,600 667 Climbing FlightAware ADS-B
Sun 12:12:55 AM 40.6200 -73.8830 190° South 235 270 1,700 938 Climbing FlightAware ADS-B
Sun 12:13:19 AM 40.5970 -73.8750 165° South 248 285 2,100 900 Climbing FlightAware ADS-B
Sun 12:13:35 AM 40.5800 -73.8560 140° Southeast 261 300 2,300 960 Climbing FlightAware ADS-B
Sun 12:13:44 AM 40.5750 -73.8450 121° Southeast 266 306 2,500 1,200 Climbing FlightAware ADS-B
Sun 12:13:55 AM 40.5690 -73.8290 116° Southeast 275 316 2,700 1,371 Climbing FlightAware ADS-B
Sun 12:14:19 AM 40.5600 -73.7890 106° East 289 333 3,300 1,667 Climbing FlightAware ADS-B
Sun 12:14:31 AM 40.5560 -73.7672 104° East 297 342 3,700 1,875 Climbing FlightAware ADS-B
Sun 12:14:35 AM 40.5557 -73.7606 93° East 297 342 3,800 2,000 Climbing FlightAware ADS-B
Sun 12:15:01 AM 40.5685 -73.7163 69° East 302 348 4,700 2,069 Climbing FlightAware ADS-B
Sun 12:15:04 AM 40.5713 -73.7121 49° Northeast 302 348 4,800 1,714 Climbing FlightAware ADS-B
Sun 12:15:08 AM 40.5753 -73.7070 44° Northeast 302 348 4,900 2,400 Climbing FlightAware ADS-B
Sun 12:15:24 AM 40.5924 -73.6885 39° Northeast 301 346 5,600 2,545 Climbing FlightAware ADS-B
Sun 12:15:41 AM 40.6105 -73.6693 39° Northeast 299 344 6,300 2,182 Climbing FlightAware ADS-B
Sun 12:15:57 AM 40.6281 -73.6507 39° Northeast 304 350 6,800 2,000 Climbing FlightAware ADS-B
Sun 12:16:11 AM 40.6438 -73.6337 39° Northeast 310 357 7,300 2,182 Climbing FlightAware ADS-B
Sun 12:16:19 AM 40.6528 -73.6232 42° Northeast 311 358 7,600 2,087 Climbing FlightAware ADS-B
Sun 12:16:34 AM 40.6688 -73.6037 43° Northeast 313 360 8,100 1,920 Climbing FlightAware ADS-B
Sun 12:16:44 AM 40.6804 -73.5919 38° Northeast 315 362 8,400 1,895 Climbing FlightAware ADS-B
Sun 12:16:53 AM 40.6915 -73.5828 32° Northeast 315 362 8,700 1,920 Climbing FlightAware ADS-B
Sun 12:17:09 AM 40.7110 -73.5694 28° Northeast 315 362 9,200 2,129 Climbing FlightAware ADS-B
Sun 12:17:24 AM 40.7320 -73.5557 26° Northeast 318 366 9,800 1,625 Climbing FlightAware ADS-B
Sun 12:17:57 AM 40.7765 -73.5271 26° Northeast 331 381 10,500 1,000 Climbing FlightAware ADS-B
Sun 12:18:36 AM 40.8340 -73.4900 26° Northeast 372 428 11,000 960 Climbing FlightAware ADS-B
Sun 12:19:12 AM 40.8910 -73.4530 26° Northeast 397 457 11,700 1,552 Climbing FlightAware ADS-B
Sun 12:19:34 AM 40.9286 -73.4296 25° Northeast 390 449 12,500 2,077 Climbing FlightAware ADS-B
Sun 12:20:04 AM 40.9808 -73.3963 26° Northeast 411 473 13,500 1,967 Climbing FlightAware ADS-B
Sun 12:20:35 AM 41.0340 -73.3625 26° Northeast 421 484 14,500 2,031 Climbing FlightAware ADS-B
Sun 12:21:09 AM 41.0949 -73.3241 25° Northeast 430 495 15,700 2,123 Climbing FlightAware ADS-B
Sun 12:21:40 AM 41.1512 -73.2885 25° Northeast 437 503 16,800 2,118 Climbing FlightAware ADS-B
Sun 12:22:17 AM 41.2180 -73.2460 26° Northeast 443 510 18,100 1,946 Climbing FlightAware ADS-B
Sun 12:22:54 AM 41.2780 -73.1800 40° Northeast 466 536 19,200 1,775 Climbing FlightAware ADS-B
Sun 12:23:28 AM 41.3230 -73.1010 53° Northeast 473 544 20,200 1,765 Climbing FlightAware ADS-B
Sun 12:24:02 AM 41.3660 -73.0220 54° Northeast 479 551 21,200 1,521 Climbing FlightAware ADS-B
Sun 12:24:39 AM 41.4130 -72.9350 54° Northeast 488 562 22,000 1,890 Climbing FlightAware ADS-B
Sun 12:25:15 AM 41.4620 -72.8460 54° Northeast 481 554 23,500 1,775 Climbing FlightAware ADS-B
Sun 12:25:50 AM 41.5090 -72.7620 53° Northeast 491 565 24,100 882 Climbing FlightAware ADS-B
Sun 12:26:23 AM 41.5540 -72.6810 53° Northeast 506 582 24,500 538 Climbing FlightAware ADS-B
Sun 12:27:08 AM 41.6040 -72.5900 54° Northeast 507 583 24,800 1,190 Climbing FlightAware ADS-B
Sun 12:27:48 AM 41.6750 -72.4630 53° Northeast 26,200 1,658 Climbing FlightAware ADS-B
Sun 12:28:24 AM 41.7270 -72.3680 54° Northeast 532 612 26,900 741 Climbing FlightAware ADS-B
Sun 12:29:09 AM 41.7820 -72.2700 53° Northeast 535 616 27,200 960 Climbing FlightAware ADS-B
Sun 12:29:39 AM 41.8370 -72.1680 54° Northeast 545 627 28,100 1,400 Climbing FlightAware ADS-B
Sun 12:30:09 AM 41.8760 -72.0960 54° Northeast 548 631 28,600 930 Climbing FlightAware ADS-B
Sun 12:30:50 AM 41.9510 -71.9820 48° Northeast 550 633 29,200 973 Climbing FlightAware ADS-B
Sun 12:31:23 AM 42.0090 -71.8960 48° Northeast 554 638 29,800 1,130 Climbing FlightAware ADS-B
Sun 12:31:59 AM 42.0730 -71.8040 47° Northeast 552 635 30,500 1,250 Climbing FlightAware ADS-B
Sun 12:32:35 AM 42.1360 -71.7150 46° Northeast 551 634 31,300 1,167 Climbing FlightAware ADS-B
Sun 12:33:11 AM 42.2000 -71.6240 46° Northeast 552 635 31,900 917 Climbing FlightAware ADS-B
Sun 12:33:47 AM 42.2620 -71.5350 47° Northeast 556 640 32,400 794 Climbing FlightAware ADS-B
Sun 12:34:19 AM 42.3180 -71.4520 48° Northeast 559 643 32,800 529 Climbing FlightAware ADS-B
Sun 12:34:55 AM 42.3830 -71.3580 47° Northeast 563 648 33,000 167 Climbing FlightAware ADS-B
Sun 12:35:31 AM 42.4470 -71.2640 47° Northeast 560 644 33,000  Level FlightAware ADS-B
Sun 12:36:07 AM 42.5080 -71.1730 48° Northeast 557 641 33,000  Level FlightAware ADS-B
Sun 12:36:41 AM 42.5680 -71.0860 47° Northeast 552 635 33,000  Level FlightAware ADS-B
Sun 12:37:17 AM 42.6290 -70.9950 48° Northeast 549 632 33,000  Level FlightAware ADS-B
Sun 12:37:49 AM 42.6840 -70.9140 47° Northeast 548 631 33,000  Level FlightAware ADS-B
Sun 12:38:25 AM 42.7470 -70.8210 47° Northeast 547 629 33,000  Level FlightAware ADS-B
Sun 12:39:01 AM 42.8090 -70.7290 47° Northeast 547 629 33,000  Level FlightAware ADS-B
Sun 12:39:37 AM 42.8700 -70.6370 48° Northeast 548 631 33,000  Level FlightAware ADS-B
Sun 12:40:09 AM 42.9240 -70.5560 48° Northeast 548 631 33,000  Level FlightAware ADS-B
Sun 12:40:45 AM 42.9860 -70.4630 48° Northeast 549 632 33,000  Level FlightAware ADS-B
Sun 12:41:21 AM 43.0470 -70.3710 48° Northeast 550 633 33,000  Level FlightAware ADS-B
Sun 12:41:56 AM 43.1050 -70.2840 48° Northeast 552 635 33,000  Level FlightAware ADS-B
Sun 12:42:32 AM 43.1620 -70.1980 48° Northeast 553 636 33,000  Level FlightAware ADS-B
Sun 12:43:02 AM 43.2210 -70.1090 48° Northeast 555 639 33,000  Level FlightAware ADS-B
Sun 12:43:41 AM 43.2880 -70.0070 48° Northeast 557 641 33,000  Level FlightAware ADS-B
Sun 12:44:17 AM 43.3510 -69.9100 48° Northeast 559 643 33,000  Level FlightAware ADS-B
Sun 12:44:53 AM 43.4060 -69.8260 48° Northeast 560 644 33,000  Level FlightAware ADS-B
Sun 12:45:24 AM 43.4650 -69.7350 48° Northeast 562 647 33,000  Level FlightAware ADS-B
Sun 12:45:55 AM 43.5130 -69.6610 48° Northeast 558 642 33,000  Level FlightAware ADS-B
Sun 12:46:37 AM 43.5920 -69.5390 48° Northeast 564 649 33,000  Level FlightAware ADS-B
Sun 12:47:09 AM 43.6480 -69.4530 48° Northeast 564 649 33,000  Level FlightAware ADS-B
Sun 12:47:52 AM 43.7210 -69.3380 49° Northeast 563 648 33,000  Level FlightAware ADS-B
Sun 12:48:27 AM 43.7800 -69.2480 48° Northeast 563 648 33,000  Level FlightAware ADS-B
Sun 12:49:07 AM 43.8490 -69.1380 49° Northeast 564 649 33,000  Level FlightAware ADS-B
Sun 12:49:46 AM 43.9170 -69.0310 49° Northeast 565 650 33,000  Level FlightAware ADS-B
Sun 12:50:40 AM 44.0130 -68.8810 48° Northeast 562 647 33,000  Level FlightAware ADS-B
Sun 12:51:18 AM 44.0770 -68.7780 49° Northeast 562 647 33,000  Level FlightAware ADS-B
Sun 12:51:48 AM 44.1270 -68.7000 48° Northeast 562 647 33,000  Level FlightAware ADS-B
Sun 12:52:26 AM 44.1930 -68.5940 49° Northeast 563 648 33,000  Level FlightAware ADS-B
Sun 12:53:02 AM 44.2560 -68.4930 49° Northeast 565 650 33,000  Level FlightAware ADS-B
Sun 12:53:36 AM 44.3150 -68.3990 49° Northeast 566 651 33,000  Level FlightAware ADS-B
Sun 12:54:12 AM 44.3760 -68.3000 49° Northeast 567 652 33,000  Level FlightAware ADS-B
Sun 12:54:46 AM 44.4330 -68.2080 49° Northeast 567 652 33,000  Level FlightAware ADS-B
Sun 12:55:20 AM 44.4930 -68.1100 49° Northeast 568 654 33,000  Level FlightAware ADS-B
Sun 12:55:56 AM 44.5540 -68.0100 49° Northeast 570 656 33,000  Level FlightAware ADS-B
Sun 12:56:30 AM 44.6130 -67.9140 49° Northeast 569 655 33,000  Level FlightAware ADS-B
Sun 12:57:04 AM 44.6710 -67.8190 49° Northeast 569 655 33,000  Level FlightAware ADS-B
Sun 12:57:40 AM 44.7330 -67.7170 49° Northeast 569 655 33,000  Level FlightAware ADS-B
Sun 12:58:16 AM 44.7940 -67.6160 50° Northeast 568 654 33,000  Level FlightAware ADS-B
Sun 12:59:04 AM 44.8740 -67.4830 50° Northeast 561 646 33,000  Level FlightAware ADS-B
Sun 12:59:39 AM 44.9320 -67.3870 50° Northeast 560 644 33,000  Level FlightAware ADS-B
Sun 01:00:14 AM 44.9920 -67.2860 50° Northeast 559 643 33,000  Level FlightAware ADS-B
Sun 01:00:49 AM 45.0500 -67.1900 49° Northeast 559 643 33,000  Level FlightAware ADS-B
Sun 01:01:24 AM 45.1100 -67.0870 50° Northeast 558 642 33,000  Level FlightAware ADS-B
Sun 01:01:55 AM 45.1600 -67.0030 50° Northeast 558 642 33,000  Level FlightAware ADS-B
Sun 01:02:35 AM 45.2270 -66.8900 50° Northeast 559 643 33,000  Level FlightAware ADS-B
Sun 01:03:10 AM 45.2870 -66.7880 50° Northeast 561 646 33,000  Level FlightAware ADS-B
Sun 01:03:45 AM 45.3450 -66.6890 50° Northeast 561 646 33,000  Level FlightAware ADS-B
Sun 01:04:25 AM 45.4120 -66.5740 50° Northeast 562 647 33,000  Level FlightAware ADS-B
Sun 01:05:00 AM 45.4710 -66.4720 50° Northeast 562 647 33,000  Level FlightAware ADS-B
Sun 01:05:35 AM 45.5280 -66.3740 50° Northeast 562 647 33,000  Level FlightAware ADS-B
Sun 01:06:10 AM 45.5880 -66.2700 50° Northeast 566 651 33,000  Level FlightAware ADS-B
Sun 01:06:46 AM 45.6460 -66.1690 51° Northeast 565 650 33,000  Level FlightAware ADS-B
Sun 01:07:20 AM 45.7030 -66.0680 51° Northeast 564 649 33,000  Level FlightAware ADS-B
Sun 01:07:55 AM 45.7610 -65.9660 51° Northeast 563 648 33,000  Level FlightAware ADS-B
Sun 01:08:30 AM 45.8190 -65.8650 50° Northeast 563 648 33,000  Level FlightAware ADS-B
Sun 01:09:05 AM 45.8770 -65.7630 51° Northeast 564 649 33,000  Level FlightAware ADS-B
Sun 01:09:45 AM 45.9320 -65.6650 51° Northeast 563 648 33,000  Level FlightAware ADS-B
Sun 01:10:21 AM 45.9820 -65.5760 51° Northeast 563 648 33,000  Level FlightAware ADS-B
Sun 01:11:09 AM 46.0720 -65.4160 51° Northeast 561 646 33,000  Level FlightAware ADS-B
Sun 01:11:45 AM 46.1220 -65.3270 51° Northeast 561 646 33,000  Level FlightAware ADS-B
Sun 01:12:22 AM 46.1730 -65.2350 51° Northeast 561 646 33,000  Level FlightAware ADS-B
Sun 01:12:59 AM 46.2240 -65.1440 51° Northeast 561 646 33,000  Level FlightAware ADS-B
Sun 01:13:35 AM 46.2740 -65.0540 51° Northeast 561 646 33,000  Level FlightAware ADS-B
Sun 01:14:12 AM 46.3260 -64.9620 51° Northeast 561 646 33,000  Level FlightAware ADS-B
Sun 01:14:48 AM 46.3760 -64.8730 51° Northeast 561 646 33,000  Level FlightAware ADS-B
Sun 01:15:24 AM 46.4260 -64.7830 51° Northeast 561 646 33,000  Level FlightAware ADS-B
Sun 01:16:00 AM 46.4760 -64.6940 51° Northeast 561 646 33,000  Level FlightAware ADS-B
Sun 01:16:36 AM 46.5260 -64.6040 51° Northeast 561 646 33,000  Level FlightAware ADS-B
Sun 01:17:12 AM 46.5760 -64.5140 51° Northeast 561 646 33,000  Level FlightAware ADS-B
Sun 01:17:48 AM 46.6260 -64.4250 51° Northeast 561 646 33,000  Level FlightAware ADS-B
Sun 01:18:25 AM 46.6770 -64.3320 51° Northeast 561 646 33,000  Level FlightAware ADS-B
Sun 01:19:01 AM 46.7270 -64.2420 51° Northeast 561 646 33,000  Level FlightAware ADS-B
Sun 01:19:37 AM 46.7770 -64.1520 51° Northeast 561 646 33,000  Level FlightAware ADS-B
Sun 01:20:13 AM 46.8270 -64.0620 51° Northeast 561 646 33,000  Level FlightAware ADS-B
Sun 01:21:09 AM 47.0000 -63.6167 51° Northeast 560 644 33,000  Level Moncton Center
Sun 01:22:09 AM 47.1000 -63.4333 51° Northeast 560 644 33,000  Level Moncton Center
Sun 01:23:09 AM 47.1833 -63.2333 58° Northeast 560 644 33,000  Level Moncton Center
Sun 01:24:09 AM 47.2833 -63.0667 48° Northeast 570 656 33,000  Level Moncton Center
Sun 01:25:09 AM 47.3667 -62.8833 56° Northeast 570 656 33,000  Level Moncton Center
Sun 01:26:09 AM 47.4667 -62.6833 53° Northeast 570 656 33,000  Level Moncton Center
Sun 01:27:09 AM 47.5667 -62.4833 53° Northeast 570 656 33,000  Level Moncton Center
Sun 01:28:09 AM 47.6667 -62.3167 48° Northeast 580 667 33,000  Level Moncton Center
Sun 01:29:09 AM 47.7500 -62.1333 56° Northeast 580 667 33,000  Level Moncton Center
Sun 01:30:09 AM 47.8500 -61.9333 53° Northeast 580 667 33,000  Level Moncton Center
Sun 01:31:09 AM 47.9333 -61.7167 60° Northeast 580 667 33,000  Level Moncton Center
Sun 01:32:09 AM 48.0500 -61.5167 49° Northeast 580 667 33,000  Level Moncton Center
Sun 01:33:09 AM 48.1333 -61.3333 56° Northeast 580 667 33,000  Level Moncton Center
Sun 01:34:09 AM 48.2333 -61.1333 53° Northeast 580 667 33,000  Level Moncton Center
Sun 01:35:09 AM 48.3167 -60.9167 60° Northeast 580 667 33,000  Level Moncton Center
Sun 01:40:23 AM 48.8530 -59.8770 60° Northeast 602 693 33,000  Level FlightAware ADS-B
Sun 01:41:03 AM 48.9140 -59.7420 55° Northeast 602 693 33,000  Level FlightAware ADS-B
Sun 01:41:38 AM 48.9720 -59.6130 56° Northeast 604 695 33,000  Level FlightAware ADS-B
Sun 01:42:13 AM 49.0280 -59.4860 56° Northeast 603 694 33,000  Level FlightAware ADS-B
Sun 01:42:48 AM 49.0810 -59.3670 56° Northeast 604 695 33,000  Level FlightAware ADS-B
Sun 01:43:23 AM 49.1350 -59.2450 56° Northeast 602 693 33,000  Level FlightAware ADS-B
Sun 01:44:16 AM 49.2080 -59.0800 56° Northeast 601 692 33,000  Level FlightAware ADS-B
Sun 01:44:48 AM 49.2630 -58.9540 56° Northeast 600 690 33,000  Level FlightAware ADS-B
Sun 01:45:23 AM 49.3220 -58.8180 56° Northeast 601 692 33,000  Level FlightAware ADS-B
Sun 01:45:58 AM 49.3770 -58.6910 56° Northeast 600 690 33,000  Level FlightAware ADS-B
Sun 01:46:38 AM 49.4310 -58.5510 59° Northeast 597 687 33,000  Level FlightAware ADS-B
Sun 01:47:18 AM 49.4800 -58.4090 62° Northeast 597 687 33,000  Level FlightAware ADS-B
Sun 01:47:53 AM 49.5290 -58.2630 63° Northeast 595 685 33,000  Level FlightAware ADS-B
Sun 01:48:23 AM 49.5680 -58.1530 61° Northeast 597 687 33,000  Level FlightAware ADS-B
Sun 01:49:03 AM 49.6200 -58.0040 62° Northeast 595 685 33,000  Level FlightAware ADS-B
Sun 01:49:39 AM 49.6670 -57.8720 61° Northeast 595 685 33,000  Level FlightAware ADS-B
Sun 01:50:08 AM 49.7040 -57.7660 62° Northeast 593 682 33,000  Level FlightAware ADS-B
Sun 01:50:43 AM 49.7520 -57.6290 61° Northeast 593 682 33,000  Level FlightAware ADS-B
Sun 01:51:18 AM 49.7960 -57.5010 62° Northeast 589 678 33,000  Level FlightAware ADS-B
Sun 01:51:53 AM 49.8420 -57.3700 61° Northeast 588 677 33,000  Level FlightAware ADS-B
Sun 01:52:28 AM 49.8850 -57.2430 62° Northeast 588 677 33,000  Level FlightAware ADS-B
Sun 01:53:03 AM 49.9310 -57.1090 62° Northeast 587 676 33,000  Level FlightAware ADS-B
Sun 01:53:43 AM 49.9810 -56.9620 62° Northeast 585 673 33,000  Level FlightAware ADS-B
Sun 01:54:13 AM 50.0190 -56.8480 63° Northeast 584 672 33,000  Level FlightAware ADS-B
Sun 01:54:48 AM 50.0620 -56.7190 63° Northeast 583 671 33,000  Level FlightAware ADS-B
Sun 01:55:28 AM 50.1130 -56.5690 62° Northeast 583 671 33,000  Level FlightAware ADS-B
Sun 01:56:03 AM 50.1550 -56.4430 62° Northeast 582 670 33,000  Level FlightAware ADS-B
Sun 01:56:33 AM 50.1920 -56.3310 63° Northeast 582 670 33,000 185 Level FlightAware ADS-B
Sun 01:57:08 AM 50.2360 -56.1950 63° Northeast 579 666 33,200 320 Climbing FlightAware ADS-B
Sun 01:57:48 AM 50.2850 -56.0470 63° Northeast 576 663 33,400 240 Climbing FlightAware ADS-B
Sun 01:58:23 AM 50.3250 -55.9240 63° Northeast 575 662 33,500 277 Climbing FlightAware ADS-B
Sun 01:58:53 AM 50.3630 -55.8060 63° Northeast 578 665 33,700 277 Climbing FlightAware ADS-B
Sun 01:59:28 AM 50.4040 -55.6810 63° Northeast 582 670 33,800 240 Climbing FlightAware ADS-B
Sun 02:00:08 AM 50.4540 -55.5240 63° Northeast 583 671 34,000 171 Climbing FlightAware ADS-B
Sun 02:00:38 AM 50.4890 -55.4140 63° Northeast 581 669 34,000  Level FlightAware ADS-B
Sun 02:01:13 AM 50.5320 -55.2800 63° Northeast 578 665 34,000  Level FlightAware ADS-B
Sun 02:01:53 AM 50.5780 -55.1320 64° Northeast 574 661 34,000  Level FlightAware ADS-B
Sun 02:02:28 AM 50.6200 -54.9980 64° Northeast 571 657 34,000  Level FlightAware ADS-B
Sun 02:03:08 AM 50.6640 -54.8550 64° Northeast 569 655 34,000  Level FlightAware ADS-B
Sun 02:03:38 AM 50.7010 -54.7370 64° Northeast 568 654 34,000  Level FlightAware ADS-B
Sun 02:04:18 AM 50.7420 -54.6010 64° Northeast 568 654 34,000  Level FlightAware ADS-B
Sun 02:05:01 AM 50.7910 -54.4440 64° Northeast 538 619 34,000  Level FlightAware ADS-B
Sun 02:05:48 AM 50.8450 -54.2630 65° Northeast 563 648 34,000  Level FlightAware ADS-B
Sun 02:06:23 AM 50.8850 -54.1300 64° Northeast 563 648 34,000  Level FlightAware ADS-B
Sun 02:06:58 AM 50.9250 -53.9980 64° Northeast 563 648 34,000  Level FlightAware ADS-B
Sun 02:07:33 AM 50.9650 -53.8640 65° Northeast 563 648 34,000  Level FlightAware ADS-B
Sun 02:08:07 AM 51.0010 -53.7420 65° Northeast 564 649 34,000  Level FlightAware ADS-B
Sun 02:08:47 AM 51.0440 -53.5980 65° Northeast 566 651 34,000  Level FlightAware ADS-B
Sun 02:09:17 AM 51.0780 -53.4800 65° Northeast 566 651 34,000  Level FlightAware ADS-B
Sun 02:09:58 AM 51.1240 -53.3220 65° Northeast 564 649 34,000  Level FlightAware ADS-B
Sun 02:10:53 AM 51.1760 -53.1390 66° East 566 651 34,000  Level FlightAware ADS-B
Sun 02:11:29 AM 51.2090 -53.0220 66° East 566 651 34,000  Level FlightAware ADS-B
Sun 02:12:05 AM 51.2420 -52.9050 66° East 566 651 34,000  Level FlightAware ADS-B
Sun 02:12:41 AM 51.2740 -52.7890 66° East 566 651 34,000  Level FlightAware ADS-B
Sun 02:13:17 AM 51.3070 -52.6710 66° East 566 651 34,000  Level FlightAware ADS-B
Sun 02:13:54 AM 51.3400 -52.5510 66° East 566 651 34,000  Level FlightAware ADS-B
Sun 02:14:30 AM 51.3730 -52.4340 66° East 566 651 34,000  Level FlightAware ADS-B
Sun 02:15:06 AM 51.4050 -52.3160 66° East 566 651 34,000  Level FlightAware ADS-B
Sun 02:15:43 AM 51.4390 -52.1960 66° East 566 651 34,000  Level FlightAware ADS-B
Sun 02:16:19 AM 51.4710 -52.0780 66° East 566 651 34,000  Level FlightAware ADS-B
Sun 02:16:56 AM 51.5050 -51.9570 66° East 566 651 34,000  Level FlightAware ADS-B
Sun 02:17:32 AM 51.5370 -51.8400 66° East 566 651 34,000  Level FlightAware ADS-B
Sun 02:18:08 AM 51.5700 -51.7220 66° East 566 651 34,000  Level FlightAware ADS-B
Sun 02:18:44 AM 51.6030 -51.6040 66° East 566 651 34,000  Level FlightAware ADS-B
Sun 02:19:20 AM 51.6350 -51.4860 66° East 566 651 34,000  Level FlightAware ADS-B
Sun 02:19:56 AM 51.6680 -51.3680 66° East 566 651 34,000  Level FlightAware ADS-B
Sun 02:21:07 AM 51.8000 -50.6833 66° East 580 667 34,000  Level Gander Center
Sun 02:22:07 AM 51.8667 -50.4167 68° East 580 667 34,000  Level Gander Center
Sun 02:23:07 AM 51.9167 -50.1833 71° East 580 667 34,000  Level Gander Center
Sun 02:25:00 AM 52.0329 -49.7718 77° East  Level FlightAware Approximate
Sun 02:26:00 AM 52.0000 -50.0000 77° East 554 638 34,000  Level ETMS Enhanced Traffic Management System
Sun 02:32:00 AM 52.2669 -48.0392 78° East 554 638 34,000  Level FlightAware Transoceanic
Sun 02:33:00 AM 52.2980 -47.7925 78° East 554 638 34,000  Level FlightAware Transoceanic
Sun 02:34:00 AM 52.3285 -47.5454 79° East 554 638 34,000  Level FlightAware Transoceanic
Sun 02:35:00 AM 52.3586 -47.2980 79° East 554 638 34,000  Level FlightAware Transoceanic
Sun 02:36:00 AM 52.3881 -47.0503 79° East 554 638 34,000  Level FlightAware Transoceanic
Sun 02:37:00 AM 52.4171 -46.8022 79° East 554 638 34,000  Level FlightAware Transoceanic
Sun 02:38:00 AM 52.4455 -46.5538 79° East 554 638 34,000  Level FlightAware Transoceanic
Sun 02:39:00 AM 52.4735 -46.3051 80° East 554 638 34,000  Level FlightAware Transoceanic
Sun 02:40:00 AM 52.5009 -46.0561 80° East 554 638 34,000  Level FlightAware Transoceanic
Sun 02:41:00 AM 52.5279 -45.8068 80° East 554 638 34,000  Level FlightAware Transoceanic
Sun 02:42:00 AM 52.5542 -45.5572 80° East 554 638 34,000  Level FlightAware Transoceanic
Sun 02:43:00 AM 52.5801 -45.3072 80° East 554 638 34,000  Level FlightAware Transoceanic
Sun 02:44:00 AM 52.6054 -45.0570 81° East 554 638 34,000  Level FlightAware Transoceanic
Sun 02:45:00 AM 52.6302 -44.8065 81° East 554 638 34,000  Level FlightAware Transoceanic
Sun 02:46:00 AM 52.6545 -44.5557 81° East 554 638 34,000  Level FlightAware Transoceanic
Sun 02:47:00 AM 52.6783 -44.3047 81° East 554 638 34,000  Level FlightAware Transoceanic
Sun 02:48:00 AM 52.7015 -44.0533 81° East 554 638 34,000  Level FlightAware Transoceanic
Sun 02:49:00 AM 52.7242 -43.8017 82° East 554 638 34,000  Level FlightAware Transoceanic
Sun 02:50:00 AM 52.7463 -43.5499 82° East 554 638 34,000  Level FlightAware Transoceanic
Sun 02:51:00 AM 52.7679 -43.2978 82° East 554 638 34,000  Level FlightAware Transoceanic
Sun 02:52:00 AM 52.7890 -43.0454 82° East 554 638 34,000  Level FlightAware Transoceanic
Sun 02:53:00 AM 52.8096 -42.7928 82° East 554 638 34,000  Level FlightAware Transoceanic
Sun 02:54:00 AM 52.8296 -42.5400 83° East 554 638 34,000  Level FlightAware Transoceanic
Sun 02:55:00 AM 52.8491 -42.2869 83° East 554 638 34,000  Level FlightAware Transoceanic
Sun 02:56:00 AM 52.8680 -42.0336 83° East 554 638 34,000  Level FlightAware Transoceanic
Sun 02:57:00 AM 52.8864 -41.7801 83° East 554 638 34,000  Level FlightAware Transoceanic
Sun 02:58:00 AM 52.9043 -41.5264 83° East 554 638 34,000  Level FlightAware Transoceanic
Sun 02:59:00 AM 52.9216 -41.2725 84° East 554 638 34,000  Level FlightAware Transoceanic
Sun 03:00:00 AM 52.9383 -41.0184 84° East 554 638 34,000  Level FlightAware Transoceanic
Sun 03:01:00 AM 52.9546 -40.7640 84° East 554 638 34,000  Level FlightAware Transoceanic
Sun 03:02:00 AM 52.9703 -40.5095 84° East 554 638 34,000  Level FlightAware Transoceanic
Sun 03:03:00 AM 52.9854 -40.2549 84° East 554 638 34,000 200 Level FlightAware Transoceanic
Sun 03:04:00 AM 52.9995 -40.0080 84° East  Level FlightAware Approximate
Sun 03:05:00 AM 53.0132 -39.7610 85° East  Level FlightAware Approximate
Sun 03:06:00 AM 53.0095 -39.7686 86° East  Level FlightAware Approximate
Sun 03:07:00 AM 53.0192 -39.5210 86° East  Level FlightAware Approximate
Sun 03:07:00 AM 53.0000 -40.0000 86° East 515 593 35,000  Level ETMS Enhanced Traffic Management System
Sun 03:08:00 AM 53.0283 -39.2733 86° East  Level FlightAware Approximate
Sun 03:09:00 AM 53.0370 -39.0255 87° East  Level FlightAware Approximate
Sun 03:10:00 AM 53.0451 -38.7776 87° East  Level FlightAware Approximate
Sun 03:11:00 AM 53.0527 -38.5296 87° East  Level FlightAware Approximate
Sun 03:12:00 AM 53.0598 -38.2816 87° East  Level FlightAware Approximate
Sun 03:13:00 AM 53.0706 -37.8603 88° East 515 593 35,000  Level FlightAware Transoceanic
Sun 03:14:00 AM 53.0761 -37.6221 88° East 515 593 35,000  Level FlightAware Transoceanic
Sun 03:15:00 AM 53.0811 -37.3839 88° East 515 593 35,000  Level FlightAware Transoceanic
Sun 03:16:00 AM 53.0856 -37.1457 88° East 515 593 35,000  Level FlightAware Transoceanic
Sun 03:17:00 AM 53.0897 -36.9074 88° East 515 593 35,000  Level FlightAware Transoceanic
Sun 03:18:00 AM 53.0933 -36.6691 89° East 515 593 35,000  Level FlightAware Transoceanic
Sun 03:19:00 AM 53.0964 -36.4307 89° East 515 593 35,000  Level FlightAware Transoceanic
Sun 03:20:00 AM 53.0990 -36.1923 89° East 515 593 35,000  Level FlightAware Transoceanic
Sun 03:21:00 AM 53.1011 -35.9539 89° East 515 593 35,000  Level FlightAware Transoceanic
Sun 03:22:00 AM 53.1028 -35.7154 89° East 515 593 35,000  Level FlightAware Transoceanic
Sun 03:23:00 AM 53.1040 -35.4770 90° East 515 593 35,000  Level FlightAware Transoceanic
Sun 03:24:00 AM 53.1047 -35.2385 90° East 515 593 35,000  Level FlightAware Transoceanic
Sun 03:25:00 AM 53.1049 -35.0000 90° East 515 593 35,000  Level FlightAware Transoceanic
Sun 03:26:00 AM 53.1047 -34.7615 90° East 515 593 35,000  Level FlightAware Transoceanic
Sun 03:27:00 AM 53.1040 -34.5230 90° East 515 593 35,000  Level FlightAware Transoceanic
Sun 03:28:00 AM 53.1028 -34.2846 91° East 515 593 35,000  Level FlightAware Transoceanic
Sun 03:29:00 AM 53.1011 -34.0461 91° East 515 593 35,000  Level FlightAware Transoceanic
Sun 03:30:00 AM 53.0990 -33.8077 91° East 515 593 35,000  Level FlightAware Transoceanic
Sun 03:31:00 AM 53.0964 -33.5693 91° East 515 593 35,000  Level FlightAware Transoceanic
Sun 03:32:00 AM 53.0933 -33.3309 91° East 515 593 35,000  Level FlightAware Transoceanic
Sun 03:33:00 AM 53.0897 -33.0926 92° East 515 593 35,000  Level FlightAware Transoceanic
Sun 03:34:00 AM 53.0856 -32.8543 92° East 515 593 35,000  Level FlightAware Transoceanic
Sun 03:35:00 AM 53.0811 -32.6161 92° East 515 593 35,000  Level FlightAware Transoceanic
Sun 03:36:00 AM 53.0761 -32.3779 92° East 515 593 35,000  Level FlightAware Transoceanic
Sun 03:37:00 AM 53.0706 -32.1397 92° East 515 593 35,000  Level FlightAware Transoceanic
Sun 03:38:00 AM 53.0647 -31.9017 92° East 515 593 35,000  Level FlightAware Transoceanic
Sun 03:39:00 AM 53.0583 -31.6637 93° East 515 593 35,000  Level FlightAware Transoceanic
Sun 03:40:00 AM 53.0514 -31.4257 93° East 515 593 35,000  Level FlightAware Transoceanic
Sun 03:41:00 AM 53.0440 -31.1879 93° East 515 593 35,000  Level FlightAware Transoceanic
Sun 03:42:00 AM 53.0361 -30.9501 93° East 515 593 35,000  Level FlightAware Transoceanic
Sun 03:43:00 AM 53.0278 -30.7124 93° East 515 593 35,000  Level FlightAware Transoceanic
Sun 03:44:00 AM 53.0190 -30.4749 94° East 515 593 35,000  Level FlightAware Transoceanic
Sun 03:45:00 AM 53.0097 -30.2374 94° East 515 593 35,000  Level FlightAware Transoceanic
Sun 03:46:00 AM 52.9997 -29.9919 94° East  Level FlightAware Approximate
Sun 03:47:00 AM 53.0007 -29.9838 86° East  Level FlightAware Approximate
Sun 03:48:00 AM 53.0107 -29.7384 86° East  Level FlightAware Approximate
Sun 03:49:00 AM 53.0202 -29.4928 86° East  Level FlightAware Approximate
Sun 03:49:00 AM 53.0000 -30.0000 86° East 515 593 35,000  Level ETMS Enhanced Traffic Management System
Sun 03:50:00 AM 53.0293 -29.2475 86° East  Level FlightAware Approximate
Sun 03:51:00 AM 53.0378 -29.0021 87° East  Level FlightAware Approximate
Sun 03:52:00 AM 53.0457 -28.7567 87° East  Level FlightAware Approximate
Sun 03:53:00 AM 53.0532 -28.5112 87° East  Level FlightAware Approximate
Sun 03:54:00 AM 53.0602 -28.2655 87° East  Level FlightAware Approximate
Sun 03:55:00 AM 53.0647 -28.0983 88° East 515 593 35,000  Level FlightAware Transoceanic
Sun 03:56:00 AM 53.0706 -27.8603 88° East 515 593 35,000  Level FlightAware Transoceanic
Sun 03:57:00 AM 53.0761 -27.6221 88° East 515 593 35,000  Level FlightAware Transoceanic
Sun 03:58:00 AM 53.0811 -27.3839 88° East 515 593 35,000  Level FlightAware Transoceanic
Sun 03:59:00 AM 53.0856 -27.1457 88° East 515 593 35,000  Level FlightAware Transoceanic
Sun 04:00:00 AM 53.0897 -26.9074 88° East 515 593 35,000  Level FlightAware Transoceanic
Sun 04:01:00 AM 53.0933 -26.6691 89° East 515 593 35,000  Level FlightAware Transoceanic
Sun 04:02:00 AM 53.0964 -26.4307 89° East 515 593 35,000  Level FlightAware Transoceanic
Sun 04:03:00 AM 53.0990 -26.1923 89° East 515 593 35,000  Level FlightAware Transoceanic
Sun 04:04:00 AM 53.1011 -25.9539 89° East 515 593 35,000  Level FlightAware Transoceanic
Sun 04:05:00 AM 53.1028 -25.7154 89° East 515 593 35,000  Level FlightAware Transoceanic
Sun 04:06:00 AM 53.1040 -25.4770 90° East 515 593 35,000  Level FlightAware Transoceanic
Sun 04:07:00 AM 53.1047 -25.2385 90° East 515 593 35,000  Level FlightAware Transoceanic
Sun 04:08:00 AM 53.1049 -25.0000 90° East 515 593 35,000  Level FlightAware Transoceanic
Sun 04:09:00 AM 53.1047 -24.7615 90° East 515 593 35,000  Level FlightAware Transoceanic
Sun 04:10:00 AM 53.1040 -24.5230 90° East 515 593 35,000  Level FlightAware Transoceanic
Sun 04:11:00 AM 53.1028 -24.2846 91° East 515 593 35,000  Level FlightAware Transoceanic
Sun 04:12:00 AM 53.1011 -24.0461 91° East 515 593 35,000  Level FlightAware Transoceanic
Sun 04:13:00 AM 53.0990 -23.8077 91° East 515 593 35,000  Level FlightAware Transoceanic
Sun 04:14:00 AM 53.0964 -23.5693 91° East 515 593 35,000  Level FlightAware Transoceanic
Sun 04:15:00 AM 53.0933 -23.3309 91° East 515 593 35,000  Level FlightAware Transoceanic
Sun 04:16:00 AM 53.0897 -23.0926 92° East 515 593 35,000  Level FlightAware Transoceanic
Sun 04:17:00 AM 53.0856 -22.8543 92° East 515 593 35,000  Level FlightAware Transoceanic
Sun 04:18:00 AM 53.0811 -22.6161 92° East 515 593 35,000  Level FlightAware Transoceanic
Sun 04:19:00 AM 53.0761 -22.3779 92° East 515 593 35,000  Level FlightAware Transoceanic
Sun 04:20:00 AM 53.0706 -22.1397 92° East 515 593 35,000  Level FlightAware Transoceanic
Sun 04:21:00 AM 53.0647 -21.9017 92° East 515 593 35,000  Level FlightAware Transoceanic
Sun 04:22:00 AM 53.0583 -21.6637 93° East 515 593 35,000  Level FlightAware Transoceanic
Sun 04:23:00 AM 53.0514 -21.4257 93° East 515 593 35,000  Level FlightAware Transoceanic
Sun 04:24:00 AM 53.0440 -21.1879 93° East 515 593 35,000  Level FlightAware Transoceanic
Sun 04:25:00 AM 53.0361 -20.9501 93° East 515 593 35,000  Level FlightAware Transoceanic
Sun 04:26:00 AM 53.0278 -20.7124 93° East 515 593 35,000  Level FlightAware Transoceanic
Sun 04:27:00 AM 53.0190 -20.4749 94° East 515 593 35,000  Level FlightAware Transoceanic
Sun 04:28:00 AM 53.0097 -20.2374 94° East 515 593 35,000  Level FlightAware Transoceanic
Sun 04:29:00 AM 52.9997 -19.9923 94° East  Level FlightAware Approximate
Sun 04:30:00 AM 53.0000 -19.9847 90° East  Level FlightAware Approximate
Sun 04:31:00 AM 52.9991 -19.7391 90° East  Level FlightAware Approximate
Sun 04:32:00 AM 52.9977 -19.4935 90° East  Level FlightAware Approximate
Sun 04:33:00 AM 52.9959 -19.2480 91° East  Level FlightAware Approximate
Sun 04:34:00 AM 52.9935 -19.0025 91° East  Level FlightAware Approximate
Sun 04:35:00 AM 52.9906 -18.7570 91° East  Level FlightAware Approximate
Sun 04:36:00 AM 52.9873 -18.5116 91° East  Level FlightAware Approximate
Sun 04:37:00 AM 52.9834 -18.2662 91° East  Level FlightAware Approximate
Sun 04:38:00 AM 52.9790 -18.0208 92° East  Level FlightAware Approximate
Sun 04:39:00 AM 52.9741 -17.7755 92° East  Level FlightAware Approximate
Sun 04:40:00 AM 52.9687 -17.5302 92° East  Level FlightAware Approximate
Sun 04:41:00 AM 52.9628 -17.2851 92° East  Level FlightAware Approximate
Sun 04:42:00 AM 52.9564 -17.0399 92° East  Level FlightAware Approximate
Sun 04:43:00 AM 52.9495 -16.7949 93° East  Level FlightAware Approximate
Sun 04:44:00 AM 52.9420 -16.5499 93° East  Level FlightAware Approximate
Sun 04:45:00 AM 52.9341 -16.3051 93° East  Level FlightAware Approximate
Sun 04:46:00 AM 52.9257 -16.0603 93° East  Level FlightAware Approximate
Sun 04:47:00 AM 52.9168 -15.8156 93° East  Level FlightAware Approximate
Sun 04:48:00 AM 52.9073 -15.5710 94° East  Level FlightAware Approximate
Sun 04:49:00 AM 52.8974 -15.3266 94° East  Level FlightAware Approximate
Sun 04:50:00 AM 52.8870 -15.0822 94° East  Level FlightAware Approximate
Sun 04:51:00 AM 52.8766 -14.8379 94° East  Level FlightAware Approximate
Sun 04:52:00 AM 52.8661 -14.5937 94° East  Level FlightAware Approximate
Sun 04:53:00 AM 52.8551 -14.3496 94° East  Level FlightAware Approximate
Sun 04:54:00 AM 52.8436 -14.1056 94° East  Level FlightAware Approximate
Sun 04:54:03 AM 52.8910 -12.8450 94° East 581 669 35,000  Level FlightAware ADS-B
Sun 04:54:40 AM 52.8790 -12.6820 97° East 581 669 35,000  Level FlightAware ADS-B
Sun 04:55:18 AM 52.8650 -12.5110 98° East 581 669 35,000  Level FlightAware ADS-B
Sun 04:55:57 AM 52.8520 -12.3390 97° East 583 671 35,000  Level FlightAware ADS-B
Sun 04:56:33 AM 52.8380 -12.1790 98° East 583 671 35,000  Level FlightAware ADS-B
Sun 04:57:07 AM 52.8260 -12.0280 97° East 584 672 35,000  Level FlightAware ADS-B
Sun 04:57:43 AM 52.8130 -11.8710 98° East 584 672 35,000  Level FlightAware ADS-B
Sun 04:58:17 AM 52.8000 -11.7180 98° East 584 672 35,000  Level FlightAware ADS-B
Sun 04:58:53 AM 52.7860 -11.5620 98° East 584 672 35,000  Level FlightAware ADS-B
Sun 04:59:27 AM 52.7730 -11.4100 98° East 585 673 35,000  Level FlightAware ADS-B
Sun 05:00:03 AM 52.7580 -11.2520 99° East 585 673 35,000  Level FlightAware ADS-B
Sun 05:00:37 AM 52.7450 -11.1050 98° East 585 673 35,000  Level FlightAware ADS-B
Sun 05:01:14 AM 52.7320 -10.9590 98° East 584 672 35,000  Level FlightAware ADS-B
Sun 05:01:47 AM 52.7160 -10.7920 99° East 584 672 35,000  Level FlightAware ADS-B
Sun 05:02:22 AM 52.7010 -10.6390 99° East 584 672 35,000  Level FlightAware ADS-B
Sun 05:02:57 AM 52.6860 -10.4850 99° East 584 672 35,000  Level FlightAware ADS-B
Sun 05:03:32 AM 52.6710 -10.3310 99° East 584 672 35,000  Level FlightAware ADS-B
Sun 05:04:07 AM 52.6580 -10.1920 99° East 585 673 35,000  Level FlightAware ADS-B
Sun 05:04:42 AM 52.6410 -10.0260 100° East 585 673 35,000  Level FlightAware ADS-B
Sun 05:05:17 AM 52.6250 -9.8710 100° East 585 673 35,000  Level FlightAware ADS-B
Sun 05:05:54 AM 52.6080 -9.7050 100° East 585 673 35,000  Level FlightAware ADS-B
Sun 05:06:24 AM 52.5950 -9.5860 100° East 584 672 35,000  Level FlightAware ADS-B
Sun 05:06:59 AM 52.5780 -9.4260 100° East 583 671 35,000  Level FlightAware ADS-B
Sun 05:07:38 AM 52.5590 -9.2510 100° East 583 671 35,000  Level FlightAware ADS-B
Sun 05:08:14 AM 52.5420 -9.0920 100° East 582 670 35,000  Level FlightAware ADS-B
Sun 05:08:40 AM 52.5290 -8.9810 101° East 581 669 35,000  Level FlightAware ADS-B
Sun 05:09:23 AM 52.5090 -8.7980 100° East 578 665 35,000  Level FlightAware ADS-B
Sun 05:09:58 AM 52.4920 -8.6420 100° East 575 662 35,000 -87 Level FlightAware ADS-B
Sun 05:10:32 AM 52.4613 -8.5667 100° East 488 562 34,900  Descending FlightAware UK
Sun 05:10:34 AM 52.4770 -8.5040 100° East 572 658 35,000 171 Climbing FlightAware ADS-B
Sun 05:11:07 AM 52.4580 -8.3500 101° East 571 657 35,000  Level FlightAware ADS-B
Sun 05:11:42 AM 52.4410 -8.2050 101° East 572 658 35,000  Level FlightAware ADS-B
Sun 05:12:20 AM 52.4210 -8.0450 102° East 573 659 35,000  Level FlightAware ADS-B
Sun 05:12:56 AM 52.4020 -7.8860 101° East 573 659 35,000  Level FlightAware ADS-B
Sun 05:13:28 AM 52.3850 -7.7520 102° East 571 657 35,000  Level FlightAware ADS-B
Sun 05:14:02 AM 52.3533 -7.6773 102° East 490 564 35,000  Level FlightAware UK
Sun 05:14:04 AM 52.3660 -7.5980 102° East 569 655 35,000  Level FlightAware ADS-B
Sun 05:14:40 AM 52.3480 -7.4480 101° East 568 654 35,000  Level FlightAware ADS-B
Sun 05:15:12 AM 52.3310 -7.3130 102° East 567 652 35,000  Level FlightAware ADS-B
Sun 05:15:44 AM 52.3140 -7.1790 102° East 567 652 35,000  Level FlightAware ADS-B
Sun 05:16:24 AM 52.2920 -7.0130 102° East 567 652 35,000  Level FlightAware ADS-B
Sun 05:16:56 AM 52.2740 -6.8750 102° East 568 654 35,000  Level FlightAware ADS-B
Sun 05:17:32 AM 52.2550 -6.7270 102° East 567 652 35,000  Level FlightAware ADS-B
Sun 05:18:08 AM 52.2360 -6.5860 102° East 569 655 35,000  Level FlightAware ADS-B
Sun 05:18:44 AM 52.2150 -6.4300 102° East 567 652 35,000  Level FlightAware ADS-B
Sun 05:18:45 AM 52.2016 -6.4987 102° East 488 562 35,000  Level FlightAware UK
Sun 05:19:22 AM 52.1930 -6.2690 103° East 565 650 35,000  Level FlightAware ADS-B
Sun 05:19:54 AM 52.1740 -6.1340 103° East 566 651 35,000  Level FlightAware ADS-B
Sun 05:20:27 AM 52.1451 -6.0749 103° East 486 559 35,000  Level FlightAware UK
Sun 05:20:32 AM 52.1550 -5.9750 103° East 569 655 35,000  Level FlightAware ADS-B
Sun 05:21:04 AM 52.1400 -5.8410 100° East 572 658 35,000  Level FlightAware ADS-B
Sun 05:21:40 AM 52.1230 -5.6890 100° East 577 664 35,000  Level FlightAware ADS-B
Sun 05:22:16 AM 52.1050 -5.5360 101° East 580 667 35,000  Level FlightAware ADS-B
Sun 05:22:52 AM 52.0870 -5.3800 101° East 579 666 35,000  Level FlightAware ADS-B
Sun 05:23:24 AM 52.0700 -5.2450 102° East 577 664 35,000  Level FlightAware ADS-B
Sun 05:23:59 AM 52.0520 -5.0970 101° East 578 665 35,000  Level FlightAware ADS-B
Sun 05:24:36 AM 52.0330 -4.9370 101° East 576 663 35,000  Level FlightAware ADS-B
Sun 05:25:12 AM 52.0130 -4.7830 102° East 576 663 35,000  Level FlightAware ADS-B
Sun 05:25:43 AM 51.9980 -4.6590 101° East 575 662 35,000  Level FlightAware ADS-B
Sun 05:26:20 AM 51.9770 -4.4990 102° East 574 661 35,000  Level FlightAware ADS-B
Sun 05:26:44 AM 51.9644 -4.3987 101° East 574 661 35,000  Level FlightAware ADS-B
Sun 05:27:32 AM 51.9380 -4.2000 102° East 573 659 35,000  Level FlightAware ADS-B
Sun 05:28:02 AM 51.9212 -4.0688 102° East 572 658 35,000  Level FlightAware ADS-B
Sun 05:28:39 AM 51.8922 -3.9890 102° East 492 566 35,000  Level FlightAware UK
Sun 05:28:40 AM 51.9000 -3.9120 102° East 569 655 35,000  Level FlightAware ADS-B
Sun 05:28:49 AM 51.8953 -3.8743 101° East 570 656 35,000  Level FlightAware ADS-B
Sun 05:29:21 AM 51.8775 -3.7416 102° East 569 655 35,000  Level FlightAware ADS-B
Sun 05:29:52 AM 51.8600 -3.6131 102° East 567 652 35,000  Level FlightAware ADS-B
Sun 05:30:28 AM 51.8398 -3.4654 102° East 567 652 35,000  Level FlightAware ADS-B
Sun 05:30:58 AM 51.8222 -3.3384 103° East 568 654 35,000  Level FlightAware ADS-B
Sun 05:31:29 AM 51.8044 -3.2108 103° East 568 654 35,000  Level FlightAware ADS-B
Sun 05:32:00 AM 51.7864 -3.0820 103° East 574 661 35,000  Level FlightAware ADS-B
Sun 05:32:31 AM 51.7683 -2.9541 103° East 573 659 35,000  Level FlightAware ADS-B
Sun 05:33:03 AM 51.7493 -2.8224 103° East 574 661 35,000  Level FlightAware ADS-B
Sun 05:33:34 AM 51.7308 -2.6933 103° East 579 666 35,000  Level FlightAware ADS-B
Sun 05:34:06 AM 51.7110 -2.5583 103° East 579 666 35,000  Level FlightAware ADS-B
Sun 05:34:36 AM 51.6921 -2.4297 103° East 580 667 35,000  Level FlightAware ADS-B
Sun 05:35:08 AM 51.6727 -2.2979 103° East 580 667 35,000  Level FlightAware ADS-B
Sun 05:35:38 AM 51.6538 -2.1712 103° East 580 667 35,000  Level FlightAware ADS-B
Sun 05:36:08 AM 51.6380 -2.0435 101° East 582 670 35,000  Level FlightAware ADS-B
Sun 05:36:38 AM 51.6262 -1.9148 98° East 581 669 35,000  Level FlightAware ADS-B
Sun 05:37:08 AM 51.6146 -1.7866 98° East 582 670 35,000  Level FlightAware ADS-B
Sun 05:37:39 AM 51.6020 -1.6542 99° East 582 670 35,000  Level FlightAware ADS-B
Sun 05:38:10 AM 51.5891 -1.5252 99° East 583 671 35,000  Level FlightAware ADS-B
Sun 05:38:40 AM 51.5756 -1.3941 99° East 584 672 35,000  Level FlightAware ADS-B
Sun 05:39:11 AM 51.5615 -1.2621 100° East 585 673 35,000  Level FlightAware ADS-B
Sun 05:39:41 AM 51.5474 -1.1327 100° East 584 672 35,000  Level FlightAware ADS-B
Sun 05:40:12 AM 51.5336 -1.0014 100° East 583 671 35,000  Level FlightAware ADS-B
Sun 05:40:42 AM 51.5203 -0.8730 99° East 581 669 35,000  Level FlightAware ADS-B
Sun 05:41:12 AM 51.5072 -0.7457 99° East 580 667 35,000  Level FlightAware ADS-B
Sun 05:41:43 AM 51.4940 -0.6191 99° East 578 665 35,000  Level FlightAware ADS-B
Sun 05:42:13 AM 51.4804 -0.4897 100° East 577 664 35,000  Level FlightAware ADS-B
Sun 05:42:44 AM 51.4664 -0.3584 100° East 578 665 35,000 197 Level FlightAware ADS-B
Sun 05:43:14 AM 51.4525 -0.2318 100° East 579 666 35,200 393 Climbing FlightAware ADS-B
Sun 05:43:45 AM 51.4379 -0.1038 100° East 587 676 35,400 387 Climbing FlightAware ADS-B
Sun 05:44:16 AM 51.4221 0.0303 101° East 593 682 35,600 393 Climbing FlightAware ADS-B
Sun 05:44:46 AM 51.4060 0.1603 101° East 596 686 35,800 400 Climbing FlightAware ADS-B
Sun 05:45:16 AM 51.3896 0.2914 101° East 596 686 36,000 381 Climbing FlightAware ADS-B
Sun 05:45:49 AM 51.3717 0.4300 102° East 592 681 36,200 364 Climbing FlightAware ADS-B
Sun 05:46:22 AM 51.3529 0.5714 102° East 588 677 36,400 400 Climbing FlightAware ADS-B
Sun 05:46:49 AM 51.3375 0.6875 102° East 584 672 36,600 414 Climbing FlightAware ADS-B
Sun 05:47:20 AM 51.3257 0.8177 98° East 582 670 36,800 387 Climbing FlightAware ADS-B
Sun 05:47:51 AM 51.3148 0.9495 97° East 581 669 37,000 197 Climbing FlightAware ADS-B
Sun 05:48:21 AM 51.3039 1.0789 98° East 583 671 37,000  Level FlightAware ADS-B
Sun 05:49:00 AM 51.2896 1.2414 98° East 583 671 37,000  Level FlightAware ADS-B
Sun 05:49:31 AM 51.2731 1.3728 101° East 583 671 37,000  Level FlightAware ADS-B
Sun 05:50:06 AM 51.2497 1.4720 101° East 490 564 37,000  Level FlightAware UK
Sun 05:50:15 AM 51.2480 1.5570 101° East 583 671 37,000  Level FlightAware ADS-B
Sun 05:50:52 AM 51.2280 1.7120 102° East 585 673 37,000  Level FlightAware ADS-B
Sun 05:51:24 AM 51.2060 1.8490 104° East 583 671 37,000  Level FlightAware ADS-B
Sun 05:51:59 AM 51.1660 1.9830 115° Southeast 581 669 37,000  Level FlightAware ADS-B
Sun 05:52:23 AM 51.1375 2.0756 116° Southeast 581 669 37,000  Level FlightAware ADS-B
Sun 05:52:54 AM 51.1019 2.1951 115° Southeast 582 670 37,000  Level FlightAware ADS-B
Sun 05:53:29 AM 51.0624 2.3312 115° Southeast 581 669 37,000  Level FlightAware ADS-B
Sun 05:54:01 AM 51.0229 2.4091 115° Southeast 494 568 37,000  Level FlightAware UK
Sun 05:54:16 AM 51.0110 2.5124 115° Southeast 581 669 37,000  Level FlightAware ADS-B
Sun 05:54:53 AM 50.9720 2.6500 114° Southeast 579 666 37,000  Level FlightAware ADS-B
Sun 05:55:29 AM 50.9300 2.7890 116° Southeast 577 664 37,000  Level FlightAware ADS-B
Sun 05:56:06 AM 50.8870 2.9260 116° Southeast 575 662 37,000  Level FlightAware ADS-B
Sun 05:56:37 AM 50.8480 3.0490 117° Southeast 574 661 37,000  Level FlightAware ADS-B
Sun 05:57:07 AM 50.8078 3.1192 117° Southeast 490 564 37,000  Level FlightAware UK
Sun 05:57:11 AM 50.8110 3.1670 117° Southeast 573 659 37,000  Level FlightAware ADS-B
Sun 05:57:48 AM 50.7650 3.3110 117° Southeast 571 657 37,000  Level FlightAware ADS-B
Sun 05:57:49 AM 50.7577 3.2772 117° Southeast 490 564 37,000  Level FlightAware UK
Sun 05:58:22 AM 50.7240 3.4380 117° Southeast 571 657 37,000  Level FlightAware ADS-B
Sun 05:59:00 AM 50.6790 3.5790 117° Southeast 569 655 37,000  Level FlightAware ADS-B
Sun 05:59:32 AM 50.6420 3.6940 117° Southeast 568 654 37,000  Level FlightAware ADS-B
Sun 05:59:37 AM 50.6296 3.6785 117° Southeast 490 564 37,000  Level FlightAware UK
Sun 06:00:08 AM 50.5990 3.8300 116° Southeast 567 652 37,000  Level FlightAware ADS-B
Sun 06:00:46 AM 50.5530 3.9710 117° Southeast 567 652 37,000  Level FlightAware ADS-B
Sun 06:01:18 AM 50.5160 4.0840 117° Southeast 567 652 37,000  Level FlightAware ADS-B
Sun 06:01:55 AM 50.4700 4.2230 117° Southeast 567 652 37,000  Level FlightAware ADS-B
Sun 06:02:27 AM 50.4310 4.3410 117° Southeast 566 651 37,000  Level FlightAware ADS-B
Sun 06:03:01 AM 50.3910 4.4630 117° Southeast 565 650 37,000  Level FlightAware ADS-B
Sun 06:03:39 AM 50.3440 4.6030 118° Southeast 566 651 37,000  Level FlightAware ADS-B
Sun 06:04:13 AM 50.3030 4.7260 118° Southeast 565 650 37,000  Level FlightAware ADS-B
Sun 06:04:51 AM 50.2580 4.8600 118° Southeast 564 649 37,000  Level FlightAware ADS-B
Sun 06:05:23 AM 50.2180 4.9790 118° Southeast 564 649 37,000  Level FlightAware ADS-B
Sun 06:05:59 AM 50.1770 5.1000 118° Southeast 564 649 37,000  Level FlightAware ADS-B
Sun 06:06:34 AM 50.1320 5.2300 118° Southeast 564 649 37,000  Level FlightAware ADS-B
Sun 06:07:11 AM 50.0880 5.3600 118° Southeast 563 648 37,000  Level FlightAware ADS-B
Sun 06:07:43 AM 50.0470 5.4790 118° Southeast 562 647 37,000  Level FlightAware ADS-B
Sun 06:08:15 AM 50.0080 5.5900 119° Southeast 563 648 37,000  Level FlightAware ADS-B
Sun 06:09:03 AM 49.9490 5.7620 118° Southeast 563 648 37,000  Level FlightAware ADS-B
Sun 06:09:36 AM 49.9070 5.8810 119° Southeast 563 648 37,000  Level FlightAware ADS-B
Sun 06:10:10 AM 49.8640 6.0020 119° Southeast 563 648 37,000  Level FlightAware ADS-B
Sun 06:10:46 AM 49.8220 6.1230 118° Southeast 562 647 37,000  Level FlightAware ADS-B
Sun 06:11:20 AM 49.7770 6.2480 119° Southeast 562 647 37,000  Level FlightAware ADS-B
Sun 06:11:54 AM 49.7350 6.3680 118° Southeast 561 646 37,000  Level FlightAware ADS-B
Sun 06:12:28 AM 49.6920 6.4860 119° Southeast 561 646 37,000  Level FlightAware ADS-B
Sun 06:13:06 AM 49.6440 6.6200 119° Southeast 560 644 37,000  Level FlightAware ADS-B
Sun 06:13:43 AM 49.5940 6.7430 122° Southeast 557 641 37,000  Level FlightAware ADS-B
Sun 06:14:13 AM 49.5500 6.8370 126° Southeast 556 640 37,000  Level FlightAware ADS-B
Sun 06:14:51 AM 49.4910 6.9610 126° Southeast 554 638 37,000  Level FlightAware ADS-B
Sun 06:15:27 AM 49.4380 7.0760 125° Southeast 554 638 37,000  Level FlightAware ADS-B
Sun 06:15:59 AM 49.3900 7.1790 126° Southeast 553 636 37,000  Level FlightAware ADS-B
Sun 06:16:35 AM 49.3370 7.2940 125° Southeast 552 635 37,000  Level FlightAware ADS-B
Sun 06:17:11 AM 49.2840 7.4110 125° Southeast 551 634 37,000  Level FlightAware ADS-B
Sun 06:17:47 AM 49.2320 7.5230 125° Southeast 551 634 37,000  Level FlightAware ADS-B
Sun 06:18:21 AM 49.1800 7.6340 126° Southeast 550 633 37,000  Level FlightAware ADS-B
Sun 06:18:55 AM 49.1300 7.7420 125° Southeast 549 632 37,000  Level FlightAware ADS-B
Sun 06:19:31 AM 49.0790 7.8520 125° Southeast 548 631 37,000  Level FlightAware ADS-B
Sun 06:20:09 AM 49.0220 7.9710 126° Southeast 547 629 37,000  Level FlightAware ADS-B
Sun 06:20:41 AM 48.9750 8.0690 126° Southeast 546 628 37,000  Level FlightAware ADS-B
Sun 06:21:13 AM 48.9280 8.1660 126° Southeast 546 628 37,000  Level FlightAware ADS-B
Sun 06:21:54 AM 48.8660 8.2930 127° Southeast 545 627 37,000  Level FlightAware ADS-B
Sun 06:22:28 AM 48.8130 8.4020 126° Southeast 545 627 37,000  Level FlightAware ADS-B
Sun 06:23:02 AM 48.7650 8.5000 127° Southeast 545 627 37,000  Level FlightAware ADS-B
Sun 06:23:36 AM 48.7170 8.5970 127° Southeast 544 626 37,000  Level FlightAware ADS-B
Sun 06:24:08 AM 48.6630 8.7070 127° Southeast 546 628 37,000  Level FlightAware ADS-B
Sun 06:24:48 AM 48.6020 8.8300 127° Southeast 547 629 37,000  Level FlightAware ADS-B
Sun 06:25:18 AM 48.5570 8.9220 126° Southeast 546 628 37,000  Level FlightAware ADS-B
Sun 06:25:53 AM 48.5040 9.0270 127° Southeast 545 627 37,000  Level FlightAware ADS-B
Sun 06:26:33 AM 48.4440 9.1460 127° Southeast 544 626 37,000  Level FlightAware ADS-B
Sun 06:27:08 AM 48.3910 9.2520 127° Southeast 543 625 37,000  Level FlightAware ADS-B
Sun 06:27:48 AM 48.3330 9.3680 127° Southeast 543 625 37,000  Level FlightAware ADS-B
Sun 06:28:24 AM 48.2760 9.4770 128° Southeast 539 620 37,000  Level FlightAware ADS-B
Sun 06:29:00 AM 48.2080 9.5660 139° Southeast 530 610 37,000  Level FlightAware ADS-B
Sun 06:29:34 AM 48.1390 9.6370 146° Southeast 529 609 37,000  Level FlightAware ADS-B
Sun 06:30:10 AM 48.0680 9.7130 144° Southeast 529 609 37,000  Level FlightAware ADS-B
Sun 06:30:46 AM 48.0000 9.7890 143° Southeast 529 609 37,000  Level FlightAware ADS-B
Sun 06:31:18 AM 47.9350 9.8620 143° Southeast 528 608 37,000  Level FlightAware ADS-B
Sun 06:31:53 AM 47.8670 9.9380 143° Southeast 528 608 37,000  Level FlightAware ADS-B
Sun 06:32:30 AM 47.7950 10.0190 143° Southeast 526 605 37,000  Level FlightAware ADS-B
Sun 06:33:00 AM 47.7370 10.0800 145° Southeast 525 604 37,000  Level FlightAware ADS-B
Sun 06:33:42 AM 47.6510 10.1680 145° Southeast 525 604 37,000  Level FlightAware ADS-B
Sun 06:34:14 AM 47.5880 10.2320 146° Southeast 524 603 37,000  Level FlightAware ADS-B
Sun 06:34:48 AM 47.5240 10.2970 146° Southeast 524 603 37,000  Level FlightAware ADS-B
Sun 06:35:22 AM 47.4540 10.3680 146° Southeast 524 603 37,000  Level FlightAware ADS-B
Sun 06:36:02 AM 47.3740 10.4490 146° Southeast 523 602 37,000  Level FlightAware ADS-B
Sun 06:36:34 AM 47.3070 10.5170 145° Southeast 524 603 37,000  Level FlightAware ADS-B
Sun 06:37:10 AM 47.2380 10.5870 145° Southeast 524 603 37,000  Level FlightAware ADS-B
Sun 06:37:43 AM 47.1780 10.6480 145° Southeast 523 602 37,000  Level FlightAware ADS-B
Sun 06:38:18 AM 47.1110 10.7140 146° Southeast 523 602 37,000  Level FlightAware ADS-B
Sun 06:38:53 AM 47.0470 10.7770 146° Southeast 523 602 37,000  Level FlightAware ADS-B
Sun 06:39:23 AM 46.9820 10.8410 146° Southeast 523 602 37,000  Level FlightAware ADS-B
Sun 06:40:03 AM 46.8990 10.9220 146° Southeast 524 603 37,000  Level FlightAware ADS-B
Sun 06:40:46 AM 46.8040 11.0140 146° Southeast 524 603 37,000  Level FlightAware ADS-B
Sun 06:41:22 AM 46.7270 11.0890 146° Southeast 524 603 37,000  Level FlightAware ADS-B
Sun 06:41:55 AM 46.6620 11.1510 147° Southeast 525 604 37,000 86 Level FlightAware ADS-B
Sun 06:42:32 AM 46.5870 11.2230 147° Southeast 521 600 37,100 324 Climbing FlightAware ADS-B
Sun 06:43:09 AM 46.5130 11.2950 146° Southeast 515 593 37,400 423 Climbing FlightAware ADS-B
Sun 06:43:43 AM 46.4470 11.3590 146° Southeast 512 589 37,600 369 Climbing FlightAware ADS-B
Sun 06:44:14 AM 46.3860 11.4170 147° Southeast 510 587 37,800 348 Climbing FlightAware ADS-B
Sun 06:44:52 AM 46.3140 11.5020 141° Southeast 514 592 38,000 162 Climbing FlightAware ADS-B
Sun 06:45:28 AM 46.2600 11.5930 131° Southeast 522 601 38,000  Level FlightAware ADS-B
Sun 06:46:00 AM 46.2110 11.6810 129° Southeast 522 601 38,000  Level FlightAware ADS-B
Sun 06:46:38 AM 46.1560 11.7810 128° Southeast 523 602 38,000  Level FlightAware ADS-B
Sun 06:47:13 AM 46.1010 11.8790 129° Southeast 523 602 38,000  Level FlightAware ADS-B
Sun 06:47:46 AM 46.0500 11.9710 129° Southeast 524 603 38,000 -86 Level FlightAware ADS-B
Sun 06:48:23 AM 45.9950 12.0690 129° Southeast 526 605 37,900 -329 Descending FlightAware ADS-B
Sun 06:48:59 AM 45.9390 12.1670 129° Southeast 525 604 37,600 -448 Descending FlightAware ADS-B
Sun 06:49:30 AM 45.8920 12.2500 129° Southeast 523 602 37,400 -395 Descending FlightAware ADS-B
Sun 06:50:15 AM 45.8230 12.3720 129° Southeast 521 600 37,100 -300 Descending FlightAware ADS-B
Sun 06:50:50 AM 45.7710 12.4620 130° Southeast 520 598 37,000 -90 Descending FlightAware ADS-B
Sun 06:51:22 AM 45.7240 12.5440 129° Southeast 515 593 37,000  Level FlightAware ADS-B
Sun 06:52:03 AM 45.6610 12.6540 129° Southeast 514 592 37,000  Level FlightAware ADS-B
Sun 06:52:38 AM 45.6080 12.7460 129° Southeast 513 590 37,000  Level FlightAware ADS-B
Sun 06:53:13 AM 45.5530 12.8410 130° Southeast 513 590 37,000  Level FlightAware ADS-B
Sun 06:53:48 AM 45.5010 12.9290 130° Southeast 513 590 37,000  Level FlightAware ADS-B
Sun 06:54:28 AM 45.4380 13.0380 129° Southeast 514 592 37,000  Level FlightAware ADS-B
Sun 06:54:58 AM 45.3910 13.1180 130° Southeast 515 593 37,000  Level FlightAware ADS-B
Sun 06:55:33 AM 45.3390 13.2070 130° Southeast 514 592 37,000  Level FlightAware ADS-B
Sun 06:56:13 AM 45.2780 13.3110 130° Southeast 513 590 37,000  Level FlightAware ADS-B
Sun 06:56:43 AM 45.2320 13.3920 129° Southeast 519 597 37,000  Level FlightAware ADS-B
Sun 06:57:18 AM 45.1850 13.4870 125° Southeast 515 593 37,000  Level FlightAware ADS-B
Sun 06:57:53 AM 45.1350 13.5860 126° Southeast 514 592 37,000  Level FlightAware ADS-B
Sun 06:58:33 AM 45.0780 13.6990 126° Southeast 519 597 37,000  Level FlightAware ADS-B
Sun 06:59:03 AM 45.0380 13.7780 126° Southeast 518 596 37,000  Level FlightAware ADS-B
Sun 06:59:38 AM 44.9870 13.8760 126° Southeast 519 597 37,000  Level FlightAware ADS-B
Sun 07:00:18 AM 44.9320 13.9800 127° Southeast 517 595 37,000  Level FlightAware ADS-B
Sun 07:00:48 AM 44.8900 14.0600 127° Southeast 517 595 37,000  Level FlightAware ADS-B
Sun 07:01:30 AM 44.8310 14.1760 126° Southeast 517 595 37,000  Level FlightAware ADS-B
Sun 07:02:07 AM 44.7820 14.2710 126° Southeast 516 594 37,000  Level FlightAware ADS-B
Sun 07:02:48 AM 44.7200 14.3910 126° Southeast 516 594 37,000  Level FlightAware ADS-B
Sun 07:03:32 AM 44.6570 14.5110 126° Southeast 515 593 37,000  Level FlightAware ADS-B
Sun 07:04:05 AM 44.6130 14.5950 126° Southeast 515 593 37,000  Level FlightAware ADS-B
Sun 07:04:40 AM 44.5610 14.6950 126° Southeast 515 593 37,000  Level FlightAware ADS-B
Sun 07:05:20 AM 44.5080 14.7960 126° Southeast 515 593 37,000  Level FlightAware ADS-B
Sun 07:06:02 AM 44.4500 14.9060 126° Southeast 515 593 37,000  Level FlightAware ADS-B
Sun 07:06:37 AM 44.3980 15.0030 127° Southeast 516 594 37,000  Level FlightAware ADS-B
Sun 07:07:13 AM 44.3440 15.1060 126° Southeast 516 594 37,000  Level FlightAware ADS-B
Sun 07:07:57 AM 44.2870 15.2140 126° Southeast 517 595 37,000  Level FlightAware ADS-B
Sun 07:08:38 AM 44.2250 15.3290 127° Southeast 517 595 37,000  Level FlightAware ADS-B
Sun 07:09:17 AM 44.1720 15.4280 127° Southeast 516 594 37,000  Level FlightAware ADS-B
Sun 07:09:47 AM 44.1250 15.5140 127° Southeast 515 593 37,000  Level FlightAware ADS-B
Sun 07:10:27 AM 44.0680 15.6200 127° Southeast 516 594 37,000  Level FlightAware ADS-B
Sun 07:10:57 AM 44.0280 15.6940 127° Southeast 515 593 37,000  Level FlightAware ADS-B
Sun 07:11:32 AM 43.9740 15.7940 127° Southeast 511 588 37,000  Level FlightAware ADS-B
Sun 07:12:10 AM 43.9170 15.8980 127° Southeast 516 594 37,000  Level FlightAware ADS-B
Sun 07:12:46 AM 43.8660 15.9910 127° Southeast 516 594 37,000  Level FlightAware ADS-B
Sun 07:13:22 AM 43.8150 16.0850 127° Southeast 516 594 37,000  Level FlightAware ADS-B
Sun 07:13:58 AM 43.7620 16.1810 127° Southeast 515 593 37,000  Level FlightAware ADS-B
Sun 07:14:30 AM 43.7160 16.2650 127° Southeast 515 593 37,000  Level FlightAware ADS-B
Sun 07:15:06 AM 43.6630 16.3600 128° Southeast 514 592 37,000  Level FlightAware ADS-B
Sun 07:15:40 AM 43.6150 16.4480 127° Southeast 513 590 37,000  Level FlightAware ADS-B
Sun 07:16:14 AM 43.5680 16.5320 128° Southeast 514 592 37,000  Level FlightAware ADS-B
Sun 07:16:52 AM 43.5120 16.6330 127° Southeast 514 592 37,000  Level FlightAware ADS-B
Sun 07:17:28 AM 43.4580 16.7300 127° Southeast 514 592 37,000  Level FlightAware ADS-B
Sun 07:18:00 AM 43.4120 16.8110 128° Southeast 514 592 37,000  Level FlightAware ADS-B
Sun 07:18:36 AM 43.3620 16.9000 128° Southeast 514 592 37,000  Level FlightAware ADS-B
Sun 07:19:12 AM 43.3080 16.9950 128° Southeast 515 593 37,000  Level FlightAware ADS-B
Sun 07:19:46 AM 43.2570 17.0860 128° Southeast 516 594 37,000  Level FlightAware ADS-B
Sun 07:20:18 AM 43.2100 17.1680 128° Southeast 516 594 37,000  Level FlightAware ADS-B
Sun 07:20:56 AM 43.1550 17.2650 128° Southeast 515 593 37,000  Level FlightAware ADS-B
Sun 07:21:30 AM 43.1040 17.3540 128° Southeast 515 593 37,000  Level FlightAware ADS-B
Sun 07:22:07 AM 43.0510 17.4470 128° Southeast 513 590 37,000  Level FlightAware ADS-B
Sun 07:22:42 AM 43.0000 17.5370 128° Southeast 513 590 37,000  Level FlightAware ADS-B
Sun 07:23:22 AM 42.9410 17.6380 129° Southeast 512 589 37,000  Level FlightAware ADS-B
Sun 07:23:56 AM 42.8930 17.7220 128° Southeast 512 589 37,000  Level FlightAware ADS-B
Sun 07:24:32 AM 42.8390 17.8160 128° Southeast 512 589 37,000  Level FlightAware ADS-B
Sun 07:25:09 AM 42.7830 17.9120 128° Southeast 512 589 37,000  Level FlightAware ADS-B
Sun 07:25:42 AM 42.7350 17.9930 129° Southeast 513 590 37,000  Level FlightAware ADS-B
Sun 07:26:18 AM 42.6820 18.0840 128° Southeast 514 592 37,000  Level FlightAware ADS-B
Sun 07:26:54 AM 42.6280 18.1770 128° Southeast 514 592 37,000  Level FlightAware ADS-B
Sun 07:27:24 AM 42.5830 18.2530 129° Southeast 515 593 37,000  Level FlightAware ADS-B
Sun 07:28:02 AM 42.5240 18.3440 131° Southeast 515 593 37,000  Level FlightAware ADS-B
Sun 07:28:38 AM 42.4650 18.4290 133° Southeast 516 594 37,000  Level FlightAware ADS-B
Sun 07:29:14 AM 42.4050 18.5110 135° Southeast 518 596 37,000  Level FlightAware ADS-B
Sun 07:29:48 AM 42.3470 18.5890 135° Southeast 519 597 37,000  Level FlightAware ADS-B
Sun 07:30:24 AM 42.2860 18.6720 135° Southeast 519 597 37,000  Level FlightAware ADS-B
Sun 07:30:56 AM 42.2320 18.7430 136° Southeast 519 597 37,000  Level FlightAware ADS-B
Sun 07:31:34 AM 42.1660 18.8320 135° Southeast 519 597 37,000  Level FlightAware ADS-B
Sun 07:32:06 AM 42.1110 18.9040 136° Southeast 521 600 37,000  Level FlightAware ADS-B
Sun 07:32:44 AM 42.0460 18.9900 135° Southeast 521 600 37,000  Level FlightAware ADS-B
Sun 07:33:33 AM 41.9630 19.0990 136° Southeast 521 600 37,000  Level FlightAware ADS-B
Sun 07:34:06 AM 41.9040 19.1760 136° Southeast 522 601 37,000  Level FlightAware ADS-B
Sun 07:34:40 AM 41.8460 19.2530 135° Southeast 523 602 37,000  Level FlightAware ADS-B
Sun 07:35:18 AM 41.7790 19.3410 136° Southeast 523 602 37,000  Level FlightAware ADS-B
Sun 07:35:50 AM 41.7250 19.4110 136° Southeast 524 603 37,000  Level FlightAware ADS-B
Sun 07:36:25 AM 41.6640 19.4920 135° Southeast 526 605 37,000  Level FlightAware ADS-B
Sun 07:37:02 AM 41.5980 19.5770 136° Southeast 527 606 37,000  Level FlightAware ADS-B
Sun 07:37:38 AM 41.5350 19.6580 136° Southeast 528 608 37,000  Level FlightAware ADS-B
Sun 07:38:12 AM 41.4750 19.7360 136° Southeast 529 609 37,000  Level FlightAware ADS-B
Sun 07:38:48 AM 41.4120 19.8180 136° Southeast 530 610 37,000  Level FlightAware ADS-B
Sun 07:39:18 AM 41.3600 19.8840 136° Southeast 531 611 37,000  Level FlightAware ADS-B
Sun 07:39:54 AM 41.2960 19.9660 136° Southeast 532 612 37,000  Level FlightAware ADS-B
Sun 07:40:34 AM 41.2260 20.0560 136° Southeast 531 611 37,000  Level FlightAware ADS-B
Sun 07:41:06 AM 41.1710 20.1260 136° Southeast 531 611 37,000  Level FlightAware ADS-B
Sun 07:41:42 AM 41.1090 20.2050 136° Southeast 531 611 37,000  Level FlightAware ADS-B
Sun 07:42:18 AM 41.0410 20.2910 136° Southeast 531 611 37,000  Level FlightAware ADS-B
Sun 07:42:54 AM 40.9780 20.3700 137° Southeast 528 608 37,000  Level FlightAware ADS-B
Sun 07:43:28 AM 40.9170 20.4460 137° Southeast 525 604 37,000  Level FlightAware ADS-B
Sun 07:44:04 AM 40.8560 20.5230 136° Southeast 522 601 37,000  Level FlightAware ADS-B
Sun 07:44:40 AM 40.7920 20.6030 137° Southeast 520 598 37,000  Level FlightAware ADS-B
Sun 07:45:20 AM 40.7200 20.6930 137° Southeast 519 597 37,000  Level FlightAware ADS-B
Sun 07:45:54 AM 40.6610 20.7660 137° Southeast 518 596 37,000  Level FlightAware ADS-B
Sun 07:46:38 AM 40.5840 20.8620 137° Southeast 519 597 37,000  Level FlightAware ADS-B
Sun 07:47:09 AM 40.5300 20.9280 137° Southeast 520 598 37,000  Level FlightAware ADS-B
Sun 07:47:45 AM 40.4680 21.0050 137° Southeast 522 601 37,000  Level FlightAware ADS-B
Sun 07:48:22 AM 40.3980 21.0860 139° Southeast 525 604 37,000  Level FlightAware ADS-B
Sun 07:48:58 AM 40.3320 21.1610 139° Southeast 526 605 37,000  Level FlightAware ADS-B
Sun 07:49:34 AM 40.2660 21.2360 139° Southeast 527 606 37,000  Level FlightAware ADS-B
Sun 07:50:06 AM 40.2070 21.3040 139° Southeast 528 608 37,000  Level FlightAware ADS-B
Sun 07:50:42 AM 40.1430 21.3760 139° Southeast 530 610 37,000  Level FlightAware ADS-B
Sun 07:51:19 AM 40.0740 21.4550 139° Southeast 531 611 37,000  Level FlightAware ADS-B
Sun 07:51:50 AM 40.0160 21.5220 138° Southeast 532 612 37,000  Level FlightAware ADS-B
Sun 07:52:26 AM 39.9490 21.5970 139° Southeast 534 615 37,000  Level FlightAware ADS-B
Sun 07:53:02 AM 39.8810 21.6750 139° Southeast 535 616 37,000  Level FlightAware ADS-B
Sun 07:53:38 AM 39.8140 21.7500 139° Southeast 535 616 37,000  Level FlightAware ADS-B
Sun 07:54:12 AM 39.7490 21.8230 139° Southeast 536 617 37,000  Level FlightAware ADS-B
Sun 07:54:44 AM 39.6890 21.8900 139° Southeast 535 616 37,000  Level FlightAware ADS-B
Sun 07:55:21 AM 39.6210 21.9650 140° Southeast 534 615 37,000  Level FlightAware ADS-B
Sun 07:55:56 AM 39.5560 22.0380 139° Southeast 533 613 37,000  Level FlightAware ADS-B
Sun 07:56:32 AM 39.4870 22.1150 139° Southeast 534 615 37,000  Level FlightAware ADS-B
Sun 07:57:08 AM 39.4200 22.1880 140° Southeast 534 615 37,000  Level FlightAware ADS-B
Sun 07:57:42 AM 39.3540 22.2610 139° Southeast 534 615 37,000  Level FlightAware ADS-B
Sun 07:58:14 AM 39.2950 22.3260 140° Southeast 534 615 37,000  Level FlightAware ADS-B
Sun 07:58:50 AM 39.2260 22.4010 140° Southeast 533 613 37,000  Level FlightAware ADS-B
Sun 07:59:28 AM 39.1570 22.4770 139° Southeast 532 612 37,000  Level FlightAware ADS-B
Sun 08:00:04 AM 39.0890 22.5520 139° Southeast 532 612 37,000  Level FlightAware ADS-B
Sun 08:00:36 AM 39.0300 22.6160 140° Southeast 531 611 37,000  Level FlightAware ADS-B
Sun 08:01:12 AM 38.9610 22.6910 140° Southeast 531 611 37,000  Level FlightAware ADS-B
Sun 08:01:47 AM 38.8950 22.7620 140° Southeast 532 612 37,000  Level FlightAware ADS-B
Sun 08:02:24 AM 38.8240 22.8380 140° Southeast 532 612 37,000  Level FlightAware ADS-B
Sun 08:02:52 AM 38.7720 22.8940 140° Southeast 532 612 37,000  Level FlightAware ADS-B
Sun 08:03:27 AM 38.7100 22.9610 140° Southeast 533 613 37,000  Level FlightAware ADS-B
Sun 08:04:09 AM 38.6370 23.0400 140° Southeast 527 606 37,000  Level FlightAware ADS-B
Sun 08:04:39 AM 38.5760 23.1050 140° Southeast 527 606 37,000  Level FlightAware ADS-B
Sun 08:05:16 AM 38.5050 23.1810 140° Southeast 526 605 37,000  Level FlightAware ADS-B
Sun 08:05:52 AM 38.4370 23.2540 140° Southeast 532 612 37,000  Level FlightAware ADS-B
Sun 08:06:26 AM 38.3840 23.3320 131° Southeast 530 610 37,000  Level FlightAware ADS-B
Sun 08:06:56 AM 38.3410 23.4080 126° Southeast 529 609 37,000  Level FlightAware ADS-B
Sun 08:07:36 AM 38.2810 23.5100 127° Southeast 531 611 37,000  Level FlightAware ADS-B
Sun 08:08:09 AM 38.2310 23.5920 128° Southeast 526 605 37,000  Level FlightAware ADS-B
Sun 08:08:46 AM 38.1780 23.6760 129° Southeast 525 604 37,000  Level FlightAware ADS-B
Sun 08:09:23 AM 38.1200 23.7670 129° Southeast 523 602 37,000  Level FlightAware ADS-B
Sun 08:10:04 AM 38.0540 23.8700 129° Southeast 522 601 37,000  Level FlightAware ADS-B
Sun 08:10:35 AM 38.0070 23.9430 129° Southeast 522 601 37,000  Level FlightAware ADS-B
Sun 08:11:10 AM 37.9540 24.0260 129° Southeast 529 609 37,000  Level FlightAware ADS-B
Sun 08:11:44 AM 37.9060 24.1070 127° Southeast 530 610 37,000  Level FlightAware ADS-B
Sun 08:12:19 AM 37.8520 24.1950 128° Southeast 531 611 37,000  Level FlightAware ADS-B
Sun 08:13:08 AM 37.7730 24.3290 127° Southeast 534 615 37,000  Level FlightAware ADS-B
Sun 08:13:40 AM 37.7290 24.4120 124° Southeast 535 616 37,000  Level FlightAware ADS-B
Sun 08:14:16 AM 37.6780 24.5050 125° Southeast 535 616 37,000  Level FlightAware ADS-B
Sun 08:14:52 AM 37.6320 24.5950 123° Southeast 536 617 37,000  Level FlightAware ADS-B
Sun 08:15:24 AM 37.5890 24.6790 123° Southeast 536 617 37,000  Level FlightAware ADS-B
Sun 08:15:54 AM 37.5470 24.7600 123° Southeast 535 616 37,000  Level FlightAware ADS-B
Sun 08:16:38 AM 37.4860 24.8760 124° Southeast 534 615 37,000  Level FlightAware ADS-B
Sun 08:17:10 AM 37.4430 24.9580 123° Southeast 534 615 37,000  Level FlightAware ADS-B
Sun 08:17:44 AM 37.3950 25.0480 124° Southeast 533 613 37,000  Level FlightAware ADS-B
Sun 08:18:22 AM 37.3440 25.1450 123° Southeast 533 613 37,000  Level FlightAware ADS-B
Sun 08:18:54 AM 37.3000 25.2260 124° Southeast 533 613 37,000  Level FlightAware ADS-B
Sun 08:19:32 AM 37.2490 25.3230 123° Southeast 532 612 37,000  Level FlightAware ADS-B
Sun 08:20:08 AM 37.1990 25.4170 124° Southeast 532 612 37,000  Level FlightAware ADS-B
Sun 08:20:40 AM 37.1540 25.5000 124° Southeast 531 611 37,000  Level FlightAware ADS-B
Sun 08:21:16 AM 37.1060 25.5900 124° Southeast 530 610 37,000  Level FlightAware ADS-B
Sun 08:21:52 AM 37.0570 25.6820 124° Southeast 530 610 37,000  Level FlightAware ADS-B
Sun 08:22:26 AM 37.0100 25.7690 124° Southeast 530 610 37,000  Level FlightAware ADS-B
Sun 08:23:02 AM 36.9610 25.8600 124° Southeast 529 609 37,000  Level FlightAware ADS-B
Sun 08:23:36 AM 36.9140 25.9480 124° Southeast 529 609 37,000  Level FlightAware ADS-B
Sun 08:24:10 AM 36.8670 26.0350 124° Southeast 528 608 37,000  Level FlightAware ADS-B
Sun 08:24:45 AM 36.8200 26.1210 124° Southeast 527 606 37,000  Level FlightAware ADS-B
Sun 08:25:22 AM 36.7700 26.2120 124° Southeast 526 605 37,000  Level FlightAware ADS-B
Sun 08:25:57 AM 36.7220 26.3000 124° Southeast 525 604 37,000  Level FlightAware ADS-B
Sun 08:26:29 AM 36.6780 26.3810 124° Southeast 524 603 37,000  Level FlightAware ADS-B
Sun 08:27:07 AM 36.6260 26.4760 124° Southeast 524 603 37,000  Level FlightAware ADS-B
Sun 08:27:43 AM 36.5760 26.5670 124° Southeast 525 604 37,000  Level FlightAware ADS-B
Sun 08:28:15 AM 36.5330 26.6460 124° Southeast 525 604 37,000  Level FlightAware ADS-B
Sun 08:28:49 AM 36.4850 26.7320 125° Southeast 525 604 37,000  Level FlightAware ADS-B
Sun 08:29:27 AM 36.4340 26.8250 124° Southeast 527 606 37,000  Level FlightAware ADS-B
Sun 08:29:59 AM 36.3900 26.9050 124° Southeast 527 606 37,000  Level FlightAware ADS-B
Sun 08:30:33 AM 36.3420 26.9900 125° Southeast 526 605 37,000  Level FlightAware ADS-B
Sun 08:31:19 AM 36.2900 27.0870 124° Southeast 526 605 37,000  Level FlightAware ADS-B
Sun 08:31:55 AM 36.2480 27.1630 124° Southeast 526 605 37,000  Level FlightAware ADS-B
Sun 08:32:28 AM 36.1860 27.2710 125° Southeast 521 600 37,000  Level FlightAware ADS-B
Sun 08:33:07 AM 36.1410 27.3530 124° Southeast 521 600 37,000  Level FlightAware ADS-B
Sun 08:33:43 AM 36.1000 27.4290 124° Southeast 521 600 37,000  Level FlightAware ADS-B
Sun 08:34:21 AM 36.0560 27.5080 125° Southeast 521 600 37,000  Level FlightAware ADS-B
Sun 08:34:57 AM 36.0150 27.5840 124° Southeast 521 600 37,000  Level FlightAware ADS-B
Sun 08:35:29 AM 35.9370 27.7110 127° Southeast 518 596 37,000  Level FlightAware ADS-B
Sun 08:36:02 AM 35.9000 27.7800 123° Southeast 518 596 37,000  Level FlightAware ADS-B
Sun 08:36:40 AM 35.8380 27.8860 126° Southeast 521 600 37,000  Level FlightAware ADS-B
Sun 08:37:18 AM 35.7910 27.9680 125° Southeast 521 600 37,000  Level FlightAware ADS-B
Sun 08:37:48 AM 35.7420 28.0530 125° Southeast 519 597 37,000  Level FlightAware ADS-B
Sun 08:38:23 AM 35.6940 28.1370 125° Southeast 516 594 37,000  Level FlightAware ADS-B
Sun 08:39:01 AM 35.6420 28.2280 125° Southeast 515 593 37,000  Level FlightAware ADS-B
Sun 08:39:37 AM 35.5930 28.3130 125° Southeast 514 592 37,000  Level FlightAware ADS-B
Sun 08:40:09 AM 35.5480 28.3900 126° Southeast 514 592 37,000  Level FlightAware ADS-B
Sun 08:40:45 AM 35.4990 28.4760 125° Southeast 513 590 37,000  Level FlightAware ADS-B
Sun 08:41:21 AM 35.4480 28.5620 126° Southeast 513 590 37,000  Level FlightAware ADS-B
Sun 08:41:57 AM 35.4010 28.6450 125° Southeast 515 593 37,000  Level FlightAware ADS-B
Sun 08:42:29 AM 35.3550 28.7220 126° Southeast 516 594 37,000  Level FlightAware ADS-B
Sun 08:43:05 AM 35.3050 28.8080 125° Southeast 517 595 37,000  Level FlightAware ADS-B
Sun 08:43:41 AM 35.2560 28.8920 126° Southeast 517 595 37,000  Level FlightAware ADS-B
Sun 08:44:25 AM 35.1950 28.9950 126° Southeast 510 587 37,000  Level FlightAware ADS-B
Sun 08:45:00 AM 35.1460 29.0790 125° Southeast 509 586 37,000  Level FlightAware ADS-B
Sun 08:45:41 AM 35.0910 29.1720 126° Southeast 508 585 37,000  Level FlightAware ADS-B
Sun 08:46:11 AM 35.0510 29.2400 126° Southeast 506 582 37,000  Level FlightAware ADS-B
Sun 08:46:46 AM 35.0020 29.3220 126° Southeast 506 582 37,000  Level FlightAware ADS-B
Sun 08:47:27 AM 34.9510 29.4110 125° Southeast 506 582 37,000  Level FlightAware ADS-B
Sun 08:48:06 AM 34.8890 29.5110 127° Southeast 504 580 37,000  Level FlightAware ADS-B
Sun 08:48:36 AM 34.8480 29.5810 126° Southeast 503 579 37,000  Level FlightAware ADS-B
Sun 08:49:12 AM 34.7980 29.6640 126° Southeast 502 578 37,000  Level FlightAware ADS-B
Sun 08:49:47 AM 34.7480 29.7470 126° Southeast 503 579 37,000  Level FlightAware ADS-B
Sun 08:50:23 AM 34.7000 29.8260 126° Southeast 504 580 37,000  Level FlightAware ADS-B
Sun 08:50:58 AM 34.6500 29.9090 126° Southeast 503 579 37,000  Level FlightAware ADS-B
Sun 08:51:43 AM 34.5940 30.0040 126° Southeast 503 579 37,000  Level FlightAware ADS-B
Sun 08:52:19 AM 34.5540 30.0750 124° Southeast 503 579 37,000  Level FlightAware ADS-B
Sun 08:52:54 AM 34.4990 30.1840 121° Southeast 516 594 37,000  Level FlightAware ADS-B
Sun 08:53:24 AM 34.4610 30.2640 120° Southeast 516 594 37,000  Level FlightAware ADS-B
Sun 08:54:00 AM 34.4210 30.3490 120° Southeast 516 594 37,000  Level FlightAware ADS-B
Sun 08:54:36 AM 34.3780 30.4390 120° Southeast 517 595 37,000  Level FlightAware ADS-B
Sun 08:55:11 AM 34.3360 30.5280 120° Southeast 517 595 37,000  Level FlightAware ADS-B
Sun 08:55:46 AM 34.2920 30.6180 121° Southeast 517 595 37,000  Level FlightAware ADS-B
Sun 08:56:21 AM 34.2550 30.6970 120° Southeast 517 595 37,000  Level FlightAware ADS-B
Sun 08:56:56 AM 34.2090 30.7910 121° Southeast 517 595 37,000  Level FlightAware ADS-B
Sun 08:57:31 AM 34.1670 30.8770 121° Southeast 517 595 37,000  Level FlightAware ADS-B
Sun 08:58:06 AM 34.1250 30.9630 121° Southeast 515 593 37,000  Level FlightAware ADS-B
Sun 08:58:41 AM 34.0820 31.0530 120° Southeast 514 592 37,000  Level FlightAware ADS-B
Sun 08:59:17 AM 34.0400 31.1380 121° Southeast 512 589 37,000  Level FlightAware ADS-B
Sun 08:59:57 AM 33.9920 31.2360 121° Southeast 511 588 37,000  Level FlightAware ADS-B
Sun 09:00:31 AM 33.9490 31.3240 120° Southeast 510 587 37,000  Level FlightAware ADS-B
Sun 09:01:07 AM 33.9070 31.4090 121° Southeast 509 586 37,000  Level FlightAware ADS-B
Sun 09:01:41 AM 33.8650 31.4940 121° Southeast 508 585 37,000  Level FlightAware ADS-B
Sun 09:02:16 AM 33.8230 31.5780 121° Southeast 507 583 37,000  Level FlightAware ADS-B
Sun 09:02:52 AM 33.7800 31.6660 120° Southeast 506 582 37,000  Level FlightAware ADS-B
Sun 09:03:27 AM 33.7370 31.7510 121° Southeast 505 581 37,000  Level FlightAware ADS-B
Sun 09:04:03 AM 33.6940 31.8370 121° Southeast 505 581 37,000  Level FlightAware ADS-B
Sun 09:04:38 AM 33.6530 31.9200 121° Southeast 504 580 37,000  Level FlightAware ADS-B
Sun 09:05:13 AM 33.6110 32.0050 121° Southeast 503 579 37,000  Level FlightAware ADS-B
Sun 09:05:48 AM 33.5690 32.0890 121° Southeast 502 578 37,000  Level FlightAware ADS-B
Sun 09:06:19 AM 33.5310 32.1620 122° Southeast 503 579 37,000  Level FlightAware ADS-B
Sun 09:06:59 AM 33.4830 32.2580 121° Southeast 503 579 37,000  Level FlightAware ADS-B
Sun 09:07:39 AM 33.4340 32.3550 121° Southeast 503 579 37,000  Level FlightAware ADS-B
Sun 09:08:14 AM 33.3970 32.4280 121° Southeast 502 578 37,000 -74 Level FlightAware ADS-B
Sun 09:09:00 AM 33.3410 32.5390 121° Southeast 501 577 36,900 -698 Descending FlightAware ADS-B
Sun 09:09:40 AM 33.2890 32.6400 122° Southeast 502 578 36,000 -1,360 Descending FlightAware ADS-B
Sun 09:10:15 AM 33.2480 32.7200 121° Southeast 504 580 35,200 -1,913 Descending FlightAware ADS-B
Sun 09:10:49 AM 33.2020 32.8090 122° Southeast 510 587 33,800 -2,149 Descending FlightAware ADS-B
Sun 09:11:22 AM 33.1610 32.8890 121° Southeast 520 598 32,800 -1,169 Descending FlightAware ADS-B
Sun 09:12:06 AM 33.1070 32.9930 122° Southeast 513 590 32,300 -966 Descending FlightAware ADS-B
Sun 09:12:49 AM 33.0530 33.0990 121° Southeast 502 578 31,400 -1,667 Descending FlightAware ADS-B
Sun 09:13:36 AM 32.9980 33.2040 122° Southeast 491 565 29,800 -2,195 Descending FlightAware ADS-B
Sun 09:14:11 AM 32.9570 33.2830 122° Southeast 485 558 28,400 -2,366 Descending FlightAware ADS-B
Sun 09:14:47 AM 32.9190 33.3570 121° Southeast 476 548 27,000 -2,273 Descending FlightAware ADS-B
Sun 09:15:17 AM 32.8880 33.4310 116° Southeast 473 544 25,900 -1,297 Descending FlightAware ADS-B
Sun 09:16:01 AM 32.8770 33.5450 97° East 431 496 25,400 -684 Descending FlightAware ADS-B
Sun 09:16:36 AM 32.8740 33.6190 93° East 406 467 25,000 -1,254 Descending FlightAware ADS-B
Sun 09:17:08 AM 32.8720 33.6970 92° East 397 457 24,000 -1,970 Descending FlightAware ADS-B
Sun 09:17:43 AM 32.8700 33.7720 92° East 389 448 22,800 -2,028 Descending FlightAware ADS-B
Sun 09:18:19 AM 32.8690 33.8490 91° East 380 437 21,600 -2,055 Descending FlightAware ADS-B
Sun 09:18:56 AM 32.8660 33.9240 93° East 369 425 20,300 -2,087 Descending FlightAware ADS-B
Sun 09:19:28 AM 32.8640 33.9880 92° East 360 414 19,200 -2,174 Descending FlightAware ADS-B
Sun 09:20:05 AM 32.8590 34.0580 95° East 349 402 17,800 -2,291 Descending FlightAware ADS-B
Sun 09:20:23 AM 32.8450 34.0920 116° Southeast 342 394 17,100 -1,941 Descending FlightAware ADS-B
Sun 09:20:39 AM 32.8270 34.1130 136° Southeast 337 388 16,700 -1,459 Descending FlightAware ADS-B
Sun 09:21:00 AM 32.7990 34.1270 157° South 329 379 16,200 -1,433 Descending FlightAware ADS-B
Sun 09:21:46 AM 32.7330 34.1410 170° South 321 369 15,100 -1,326 Descending FlightAware ADS-B
Sun 09:22:26 AM 32.6810 34.1510 171° South 315 362 14,300 -1,421 Descending FlightAware ADS-B
Sun 09:23:02 AM 32.6210 34.1640 170° South 309 356 13,300 -1,524 Descending FlightAware ADS-B
Sun 09:23:29 AM 32.5820 34.1720 170° South 306 352 12,700 -1,406 Descending FlightAware ADS-B
Sun 09:24:06 AM 32.5320 34.1830 169° South 302 348 11,800 -1,417 Descending FlightAware ADS-B
Sun 09:24:41 AM 32.4850 34.1940 169° South 298 343 11,000 -1,358 Descending FlightAware ADS-B
Sun 09:24:59 AM 32.4630 34.2080 152° Southeast 297 342 10,600 -1,375 Descending FlightAware ADS-B
Sun 09:25:29 AM 32.4330 34.2430 135° Southeast 295 339 9,900 -1,467 Descending FlightAware ADS-B
Sun 09:25:44 AM 32.4190 34.2600 134° Southeast 294 338 9,500 -1,297 Descending FlightAware ADS-B
Sun 09:26:06 AM 32.3990 34.2830 136° Southeast 291 335 9,100 -1,297 Descending FlightAware ADS-B
Sun 09:26:21 AM 32.3850 34.3000 134° Southeast 288 331 8,700 -1,371 Descending FlightAware ADS-B
Sun 09:26:41 AM 32.3680 34.3200 135° Southeast 288 331 8,300 -1,333 Descending FlightAware ADS-B
Sun 09:27:06 AM 32.3420 34.3500 136° Southeast 286 329 7,700 -1,317 Descending FlightAware ADS-B
Sun 09:27:22 AM 32.3290 34.3650 136° Southeast 284 327 7,400 -1,350 Descending FlightAware ADS-B
Sun 09:27:46 AM 32.3040 34.3940 136° Southeast 281 323 6,800 -1,364 Descending FlightAware ADS-B
Sun 09:28:06 AM 32.2860 34.4140 137° Southeast 279 321 6,400 -1,000 Descending FlightAware ADS-B
Sun 09:28:28 AM 32.2700 34.4320 136° Southeast 278 320 6,100 -1,050 Descending FlightAware ADS-B
Sun 09:28:46 AM 32.2510 34.4540 136° Southeast 272 313 5,700 -1,125 Descending FlightAware ADS-B
Sun 09:29:16 AM 32.2230 34.4880 134° Southeast 267 307 5,200 -600 Descending FlightAware ADS-B
Sun 09:29:36 AM 32.2080 34.5120 126° Southeast 266 306 5,200  Level FlightAware ADS-B
Sun 09:30:16 AM 32.1830 34.5610 121° Southeast 266 306 5,200  Level FlightAware ADS-B
Sun 09:30:31 AM 32.1740 34.5780 122° Southeast 267 307 5,200  Level FlightAware ADS-B
Sun 09:31:01 AM 32.1530 34.6180 122° Southeast 267 307 5,200  Level FlightAware ADS-B
Sun 09:31:21 AM 32.1390 34.6430 123° Southeast 268 308 5,200  Level FlightAware ADS-B
Sun 09:31:36 AM 32.1300 34.6590 124° Southeast 266 306 5,200  Level FlightAware ADS-B
Sun 09:31:56 AM 32.1160 34.6840 123° Southeast 270 311 5,200  Level FlightAware ADS-B
Sun 09:32:16 AM 32.1020 34.7080 125° Southeast 250 288 5,200 133 Level FlightAware ADS-B
Sun 09:32:41 AM 32.0890 34.7320 123° Southeast 228 262 5,300  Climbing FlightAware ADS-B
Sun 09:33:06 AM 32.0740 34.7590 123° Southeast 226 260 5,200 -109 Descending FlightAware ADS-B
Sun 09:33:36 AM 32.0550 34.7930 123° Southeast 226 260 5,200  Level FlightAware ADS-B
Sun 09:33:56 AM 32.0420 34.8110 130° Southeast 224 258 5,200 -150 Level FlightAware ADS-B
Sun 09:34:16 AM 32.0290 34.8250 138° Southeast 224 258 5,100 -133 Descending FlightAware ADS-B
Sun 09:34:41 AM 32.0130 34.8440 135° Southeast 224 258 5,100 -600 Level FlightAware ADS-B
Sun 09:35:06 AM 31.9890 34.8700 137° Southeast 224 258 4,600 -1,200 Descending FlightAware ADS-B
Sun 09:35:26 AM 31.9760 34.8850 136° Southeast 227 261 4,200 -533 Descending FlightAware ADS-B
Sun 09:35:51 AM 31.9600 34.9030 136° Southeast 227 261 4,200 -1,500 Level FlightAware ADS-B
Sun 09:36:06 AM 31.9760 34.8850 316° Northwest 216 249 3,200 -2,229 Descending FlightAware ADS-B
Sun 09:36:26 AM 31.9650 34.9480 102° East 192 221 2,900 -933 Descending FlightAware ADS-B
Sun 09:36:51 AM 31.9710 34.9740 75° East 173 199 2,500 -1,050 Descending FlightAware ADS-B
Sun 09:37:06 AM 31.9770 34.9860 59° Northeast 169 194 2,200 -900 Descending FlightAware ADS-B
Sun 09:37:11 AM 31.9770 34.9870 90° East 166 191 2,200 -900 Level FlightAware ADS-B
Sun 09:37:26 AM 31.9900 34.9910 15° North 153 176 1,900 -1,029 Descending FlightAware ADS-B
Sun 09:37:46 AM 32.0020 34.9890 352° North 149 171 1,600 -960 Descending FlightAware ADS-B
Sun 09:37:51 AM 32.0070 34.9860 333° Northwest 150 173 1,500 -900 Descending FlightAware ADS-B
Sun 09:38:06 AM 32.0120 34.9770 303° West 152 175 1,300 -300 Descending FlightAware ADS-B
Sun 09:38:31 AM 32.0210 34.9630 307° West 152 175 1,300  Level FlightAware ADS-B

Login

Don't have an account? Register now (free) for customized features, flight alerts, and more!